<?xml version="1.0" encoding="UTF-8" standalone="no" ?>
<gpx xmlns="http://www.topografix.com/GPX/1/1" xmlns:xsi="http://www.w3.org/2001/XMLSchema-instance" xsi:schemaLocation="http://www.topografix.com/GPX/1/1 http://www.topografix.com/GPX/1/1/gpx.xsd" version="1.1" creator="VisuGPX - https://www.visugpx.com">
  <metadata>
    <name>Rando à Guines</name>
    <desc><![CDATA[Rando à Guines]]></desc>
  </metadata>
  <trk>
    <name><![CDATA[2012-12-01T13:50:43Z]]></name>
    <trkseg>
      <trkpt lat="50.86694" lon="1.87936">
        <ele>-19.0889893</ele>
        <time>2012-12-01T13:50:48Z</time>
      </trkpt>
      <trkpt lat="50.86688" lon="1.87932">
        <ele>-17.6470947</ele>
        <time>2012-12-01T13:50:53Z</time>
      </trkpt>
      <trkpt lat="50.86686" lon="1.8793">
        <ele>-17.1663818</ele>
        <time>2012-12-01T13:50:55Z</time>
      </trkpt>
      <trkpt lat="50.86667" lon="1.87886">
        <ele>-1.3046875</ele>
        <time>2012-12-01T13:51:00Z</time>
      </trkpt>
      <trkpt lat="50.86663" lon="1.87867">
        <ele>5.4245605</ele>
        <time>2012-12-01T13:51:09Z</time>
      </trkpt>
      <trkpt lat="50.86655" lon="1.87846">
        <ele>19.8443604</ele>
        <time>2012-12-01T13:51:20Z</time>
      </trkpt>
      <trkpt lat="50.86651" lon="1.87838">
        <ele>26.5736084</ele>
        <time>2012-12-01T13:51:25Z</time>
      </trkpt>
      <trkpt lat="50.86647" lon="1.87825">
        <ele>28.0155029</ele>
        <time>2012-12-01T13:51:33Z</time>
      </trkpt>
      <trkpt lat="50.86644" lon="1.87811">
        <ele>30.4188232</ele>
        <time>2012-12-01T13:51:41Z</time>
      </trkpt>
      <trkpt lat="50.86639" lon="1.87793">
        <ele>33.3028564</ele>
        <time>2012-12-01T13:51:50Z</time>
      </trkpt>
      <trkpt lat="50.86641" lon="1.87786">
        <ele>28.9769287</ele>
        <time>2012-12-01T13:51:54Z</time>
      </trkpt>
      <trkpt lat="50.86646" lon="1.87775">
        <ele>17.9217529</ele>
        <time>2012-12-01T13:52:00Z</time>
      </trkpt>
      <trkpt lat="50.86647" lon="1.8777">
        <ele>13.5958252</ele>
        <time>2012-12-01T13:52:03Z</time>
      </trkpt>
      <trkpt lat="50.86642" lon="1.87763">
        <ele>12.1538086</ele>
        <time>2012-12-01T13:52:09Z</time>
      </trkpt>
      <trkpt lat="50.86643" lon="1.87744">
        <ele>11.6732178</ele>
        <time>2012-12-01T13:52:18Z</time>
      </trkpt>
      <trkpt lat="50.8664" lon="1.87727">
        <ele>12.1538086</ele>
        <time>2012-12-01T13:52:25Z</time>
      </trkpt>
      <trkpt lat="50.86636" lon="1.87716">
        <ele>14.076416</ele>
        <time>2012-12-01T13:52:29Z</time>
      </trkpt>
      <trkpt lat="50.86637" lon="1.87706">
        <ele>12.1538086</ele>
        <time>2012-12-01T13:52:33Z</time>
      </trkpt>
      <trkpt lat="50.86642" lon="1.87697">
        <ele>11.6732178</ele>
        <time>2012-12-01T13:52:39Z</time>
      </trkpt>
      <trkpt lat="50.86642" lon="1.87697">
        <ele>8.7891846</ele>
        <time>2012-12-01T13:52:40Z</time>
      </trkpt>
      <trkpt lat="50.86645" lon="1.87686">
        <ele>4.4632568</ele>
        <time>2012-12-01T13:52:46Z</time>
      </trkpt>
      <trkpt lat="50.86646" lon="1.8768">
        <ele>7.8278809</ele>
        <time>2012-12-01T13:52:49Z</time>
      </trkpt>
      <trkpt lat="50.86646" lon="1.87675">
        <ele>6.3858643</ele>
        <time>2012-12-01T13:52:51Z</time>
      </trkpt>
      <trkpt lat="50.86657" lon="1.87664">
        <ele>6.3858643</ele>
        <time>2012-12-01T13:52:59Z</time>
      </trkpt>
      <trkpt lat="50.86661" lon="1.87657">
        <ele>5.4245605</ele>
        <time>2012-12-01T13:53:04Z</time>
      </trkpt>
      <trkpt lat="50.86667" lon="1.87652">
        <ele>1.5793457</ele>
        <time>2012-12-01T13:53:08Z</time>
      </trkpt>
      <trkpt lat="50.86668" lon="1.87651">
        <ele>0.618042</ele>
        <time>2012-12-01T13:53:09Z</time>
      </trkpt>
      <trkpt lat="50.86677" lon="1.8764">
        <ele>-4.6693115</ele>
        <time>2012-12-01T13:53:16Z</time>
      </trkpt>
      <trkpt lat="50.86682" lon="1.87633">
        <ele>-5.1499023</ele>
        <time>2012-12-01T13:53:21Z</time>
      </trkpt>
      <trkpt lat="50.86686" lon="1.87624">
        <ele>-3.7078857</ele>
        <time>2012-12-01T13:53:26Z</time>
      </trkpt>
      <trkpt lat="50.86688" lon="1.87617">
        <ele>-1.3046875</ele>
        <time>2012-12-01T13:53:30Z</time>
      </trkpt>
      <trkpt lat="50.8669" lon="1.87613">
        <ele>0.1374512</ele>
        <time>2012-12-01T13:53:34Z</time>
      </trkpt>
      <trkpt lat="50.86694" lon="1.87607">
        <ele>1.5793457</ele>
        <time>2012-12-01T13:53:38Z</time>
      </trkpt>
      <trkpt lat="50.86695" lon="1.87607">
        <ele>0.618042</ele>
        <time>2012-12-01T13:53:39Z</time>
      </trkpt>
      <trkpt lat="50.86701" lon="1.87601">
        <ele>4.4632568</ele>
        <time>2012-12-01T13:53:46Z</time>
      </trkpt>
      <trkpt lat="50.8671" lon="1.87583">
        <ele>5.4245605</ele>
        <time>2012-12-01T13:53:51Z</time>
      </trkpt>
      <trkpt lat="50.86721" lon="1.87574">
        <ele>2.5406494</ele>
        <time>2012-12-01T13:53:55Z</time>
      </trkpt>
      <trkpt lat="50.86721" lon="1.87567">
        <ele>4.9438477</ele>
        <time>2012-12-01T13:54:00Z</time>
      </trkpt>
      <trkpt lat="50.86725" lon="1.87558">
        <ele>8.3085938</ele>
        <time>2012-12-01T13:54:05Z</time>
      </trkpt>
      <trkpt lat="50.86725" lon="1.87558">
        <ele>9.7506104</ele>
        <time>2012-12-01T13:54:09Z</time>
      </trkpt>
      <trkpt lat="50.86725" lon="1.87554">
        <ele>10.711792</ele>
        <time>2012-12-01T13:54:13Z</time>
      </trkpt>
      <trkpt lat="50.86732" lon="1.87545">
        <ele>8.7891846</ele>
        <time>2012-12-01T13:54:18Z</time>
      </trkpt>
      <trkpt lat="50.86743" lon="1.87531">
        <ele>3.5019531</ele>
        <time>2012-12-01T13:54:27Z</time>
      </trkpt>
      <trkpt lat="50.86753" lon="1.87518">
        <ele>4.9438477</ele>
        <time>2012-12-01T13:54:36Z</time>
      </trkpt>
      <trkpt lat="50.8676" lon="1.87509">
        <ele>4.4632568</ele>
        <time>2012-12-01T13:54:44Z</time>
      </trkpt>
      <trkpt lat="50.86767" lon="1.87499">
        <ele>4.4632568</ele>
        <time>2012-12-01T13:54:50Z</time>
      </trkpt>
      <trkpt lat="50.86773" lon="1.87492">
        <ele>4.4632568</ele>
        <time>2012-12-01T13:54:54Z</time>
      </trkpt>
      <trkpt lat="50.86778" lon="1.87482">
        <ele>5.9052734</ele>
        <time>2012-12-01T13:55:01Z</time>
      </trkpt>
      <trkpt lat="50.86783" lon="1.87477">
        <ele>6.3858643</ele>
        <time>2012-12-01T13:55:05Z</time>
      </trkpt>
      <trkpt lat="50.86789" lon="1.87463">
        <ele>6.8664551</ele>
        <time>2012-12-01T13:55:14Z</time>
      </trkpt>
      <trkpt lat="50.86791" lon="1.87458">
        <ele>5.9052734</ele>
        <time>2012-12-01T13:55:17Z</time>
      </trkpt>
      <trkpt lat="50.86794" lon="1.87449">
        <ele>6.3858643</ele>
        <time>2012-12-01T13:55:22Z</time>
      </trkpt>
      <trkpt lat="50.86802" lon="1.87434">
        <ele>4.9438477</ele>
        <time>2012-12-01T13:55:31Z</time>
      </trkpt>
      <trkpt lat="50.86809" lon="1.87426">
        <ele>5.9052734</ele>
        <time>2012-12-01T13:55:38Z</time>
      </trkpt>
      <trkpt lat="50.86814" lon="1.87418">
        <ele>4.9438477</ele>
        <time>2012-12-01T13:55:44Z</time>
      </trkpt>
      <trkpt lat="50.86815" lon="1.87417">
        <ele>4.4632568</ele>
        <time>2012-12-01T13:55:45Z</time>
      </trkpt>
      <trkpt lat="50.86821" lon="1.87408">
        <ele>4.9438477</ele>
        <time>2012-12-01T13:55:52Z</time>
      </trkpt>
      <trkpt lat="50.86825" lon="1.87405">
        <ele>5.9052734</ele>
        <time>2012-12-01T13:55:57Z</time>
      </trkpt>
      <trkpt lat="50.86832" lon="1.874">
        <ele>5.4245605</ele>
        <time>2012-12-01T13:56:02Z</time>
      </trkpt>
      <trkpt lat="50.86835" lon="1.87396">
        <ele>4.4632568</ele>
        <time>2012-12-01T13:56:05Z</time>
      </trkpt>
      <trkpt lat="50.86842" lon="1.87389">
        <ele>4.9438477</ele>
        <time>2012-12-01T13:56:12Z</time>
      </trkpt>
      <trkpt lat="50.86846" lon="1.87385">
        <ele>5.4245605</ele>
        <time>2012-12-01T13:56:17Z</time>
      </trkpt>
      <trkpt lat="50.86849" lon="1.87369">
        <ele>4.9438477</ele>
        <time>2012-12-01T13:56:25Z</time>
      </trkpt>
      <trkpt lat="50.86849" lon="1.8736">
        <ele>4.9438477</ele>
        <time>2012-12-01T13:56:30Z</time>
      </trkpt>
      <trkpt lat="50.8685" lon="1.87349">
        <ele>4.4632568</ele>
        <time>2012-12-01T13:56:37Z</time>
      </trkpt>
      <trkpt lat="50.86851" lon="1.87347">
        <ele>4.9438477</ele>
        <time>2012-12-01T13:56:38Z</time>
      </trkpt>
      <trkpt lat="50.86855" lon="1.87342">
        <ele>4.9438477</ele>
        <time>2012-12-01T13:56:42Z</time>
      </trkpt>
      <trkpt lat="50.86861" lon="1.87332">
        <ele>5.9052734</ele>
        <time>2012-12-01T13:56:49Z</time>
      </trkpt>
      <trkpt lat="50.86868" lon="1.87321">
        <ele>8.3085938</ele>
        <time>2012-12-01T13:56:55Z</time>
      </trkpt>
      <trkpt lat="50.86875" lon="1.87306">
        <ele>7.8278809</ele>
        <time>2012-12-01T13:57:04Z</time>
      </trkpt>
      <trkpt lat="50.86881" lon="1.87293">
        <ele>4.4632568</ele>
        <time>2012-12-01T13:57:13Z</time>
      </trkpt>
      <trkpt lat="50.86883" lon="1.8729">
        <ele>4.4632568</ele>
        <time>2012-12-01T13:57:15Z</time>
      </trkpt>
      <trkpt lat="50.86884" lon="1.87286">
        <ele>3.982666</ele>
        <time>2012-12-01T13:57:17Z</time>
      </trkpt>
      <trkpt lat="50.86891" lon="1.87276">
        <ele>2.0600586</ele>
        <time>2012-12-01T13:57:25Z</time>
      </trkpt>
      <trkpt lat="50.86893" lon="1.87266">
        <ele>3.982666</ele>
        <time>2012-12-01T13:57:30Z</time>
      </trkpt>
      <trkpt lat="50.86896" lon="1.87254">
        <ele>4.9438477</ele>
        <time>2012-12-01T13:57:36Z</time>
      </trkpt>
      <trkpt lat="50.869" lon="1.87242">
        <ele>0.618042</ele>
        <time>2012-12-01T13:57:43Z</time>
      </trkpt>
      <trkpt lat="50.86902" lon="1.87228">
        <ele>3.0212402</ele>
        <time>2012-12-01T13:57:50Z</time>
      </trkpt>
      <trkpt lat="50.86903" lon="1.87219">
        <ele>3.5019531</ele>
        <time>2012-12-01T13:57:55Z</time>
      </trkpt>
      <trkpt lat="50.86903" lon="1.87213">
        <ele>12.6343994</ele>
        <time>2012-12-01T13:58:00Z</time>
      </trkpt>
      <trkpt lat="50.86911" lon="1.87201">
        <ele>13.5958252</ele>
        <time>2012-12-01T13:58:07Z</time>
      </trkpt>
      <trkpt lat="50.86915" lon="1.87194">
        <ele>15.9990234</ele>
        <time>2012-12-01T13:58:10Z</time>
      </trkpt>
      <trkpt lat="50.86918" lon="1.87185">
        <ele>16.4797363</ele>
        <time>2012-12-01T13:58:12Z</time>
      </trkpt>
      <trkpt lat="50.86915" lon="1.87172">
        <ele>20.3249512</ele>
        <time>2012-12-01T13:58:19Z</time>
      </trkpt>
      <trkpt lat="50.86912" lon="1.87169">
        <ele>23.2089844</ele>
        <time>2012-12-01T13:58:21Z</time>
      </trkpt>
      <trkpt lat="50.86901" lon="1.87159">
        <ele>31.8607178</ele>
        <time>2012-12-01T13:58:28Z</time>
      </trkpt>
      <trkpt lat="50.86896" lon="1.87151">
        <ele>34.744873</ele>
        <time>2012-12-01T13:58:32Z</time>
      </trkpt>
      <trkpt lat="50.86908" lon="1.87135">
        <ele>15.9990234</ele>
        <time>2012-12-01T13:58:41Z</time>
      </trkpt>
      <trkpt lat="50.86916" lon="1.87136">
        <ele>6.3858643</ele>
        <time>2012-12-01T13:58:45Z</time>
      </trkpt>
      <trkpt lat="50.8692" lon="1.87138">
        <ele>3.5019531</ele>
        <time>2012-12-01T13:58:46Z</time>
      </trkpt>
      <trkpt lat="50.86929" lon="1.87139">
        <ele>-5.1499023</ele>
        <time>2012-12-01T13:58:51Z</time>
      </trkpt>
      <trkpt lat="50.86927" lon="1.87124">
        <ele>0.618042</ele>
        <time>2012-12-01T13:58:57Z</time>
      </trkpt>
      <trkpt lat="50.86916" lon="1.87109">
        <ele>12.6343994</ele>
        <time>2012-12-01T13:59:03Z</time>
      </trkpt>
      <trkpt lat="50.86903" lon="1.871">
        <ele>20.8056641</ele>
        <time>2012-12-01T13:59:09Z</time>
      </trkpt>
      <trkpt lat="50.86902" lon="1.87085">
        <ele>25.1317139</ele>
        <time>2012-12-01T13:59:16Z</time>
      </trkpt>
      <trkpt lat="50.86907" lon="1.87073">
        <ele>19.3637695</ele>
        <time>2012-12-01T13:59:22Z</time>
      </trkpt>
      <trkpt lat="50.86911" lon="1.87069">
        <ele>17.9217529</ele>
        <time>2012-12-01T13:59:25Z</time>
      </trkpt>
      <trkpt lat="50.86923" lon="1.87055">
        <ele>17.9217529</ele>
        <time>2012-12-01T13:59:36Z</time>
      </trkpt>
      <trkpt lat="50.86928" lon="1.87048">
        <ele>13.1151123</ele>
        <time>2012-12-01T13:59:44Z</time>
      </trkpt>
      <trkpt lat="50.86929" lon="1.8704">
        <ele>7.8278809</ele>
        <time>2012-12-01T13:59:52Z</time>
      </trkpt>
      <trkpt lat="50.8693" lon="1.87038">
        <ele>7.8278809</ele>
        <time>2012-12-01T13:59:57Z</time>
      </trkpt>
      <trkpt lat="50.86932" lon="1.87038">
        <ele>7.347168</ele>
        <time>2012-12-01T14:00:04Z</time>
      </trkpt>
      <trkpt lat="50.86928" lon="1.87028">
        <ele>4.4632568</ele>
        <time>2012-12-01T14:00:52Z</time>
      </trkpt>
      <trkpt lat="50.86935" lon="1.87034">
        <ele>9.2698975</ele>
        <time>2012-12-01T14:01:13Z</time>
      </trkpt>
      <trkpt lat="50.86937" lon="1.87035">
        <ele>8.3085938</ele>
        <time>2012-12-01T14:01:19Z</time>
      </trkpt>
      <trkpt lat="50.86936" lon="1.87039">
        <ele>12.1538086</ele>
        <time>2012-12-01T14:01:30Z</time>
      </trkpt>
      <trkpt lat="50.86941" lon="1.8704">
        <ele>4.4632568</ele>
        <time>2012-12-01T14:01:52Z</time>
      </trkpt>
      <trkpt lat="50.86939" lon="1.8704">
        <ele>5.4245605</ele>
        <time>2012-12-01T14:02:47Z</time>
      </trkpt>
      <trkpt lat="50.8694" lon="1.87045">
        <ele>3.982666</ele>
        <time>2012-12-01T14:03:07Z</time>
      </trkpt>
      <trkpt lat="50.86938" lon="1.87045">
        <ele>7.8278809</ele>
        <time>2012-12-01T14:03:19Z</time>
      </trkpt>
      <trkpt lat="50.86941" lon="1.87044">
        <ele>5.4245605</ele>
        <time>2012-12-01T14:03:27Z</time>
      </trkpt>
      <trkpt lat="50.8694" lon="1.87044">
        <ele>4.4632568</ele>
        <time>2012-12-01T14:03:47Z</time>
      </trkpt>
      <trkpt lat="50.86941" lon="1.87042">
        <ele>3.5019531</ele>
        <time>2012-12-01T14:04:01Z</time>
      </trkpt>
      <trkpt lat="50.86937" lon="1.87038">
        <ele>8.7891846</ele>
        <time>2012-12-01T14:04:41Z</time>
      </trkpt>
      <trkpt lat="50.86937" lon="1.87033">
        <ele>8.3085938</ele>
        <time>2012-12-01T14:04:48Z</time>
      </trkpt>
      <trkpt lat="50.86938" lon="1.87033">
        <ele>6.8664551</ele>
        <time>2012-12-01T14:05:03Z</time>
      </trkpt>
      <trkpt lat="50.86938" lon="1.87033">
        <ele>5.9052734</ele>
        <time>2012-12-01T14:05:11Z</time>
      </trkpt>
      <trkpt lat="50.86939" lon="1.87034">
        <ele>2.0600586</ele>
        <time>2012-12-01T14:05:32Z</time>
      </trkpt>
      <trkpt lat="50.86941" lon="1.87036">
        <ele>2.0600586</ele>
        <time>2012-12-01T14:05:37Z</time>
      </trkpt>
      <trkpt lat="50.8694" lon="1.87039">
        <ele>4.9438477</ele>
        <time>2012-12-01T14:05:44Z</time>
      </trkpt>
      <trkpt lat="50.8694" lon="1.87046">
        <ele>8.3085938</ele>
        <time>2012-12-01T14:05:53Z</time>
      </trkpt>
      <trkpt lat="50.86942" lon="1.87051">
        <ele>8.7891846</ele>
        <time>2012-12-01T14:05:58Z</time>
      </trkpt>
      <trkpt lat="50.86947" lon="1.87055">
        <ele>11.6732178</ele>
        <time>2012-12-01T14:06:05Z</time>
      </trkpt>
      <trkpt lat="50.86958" lon="1.87083">
        <ele>11.6732178</ele>
        <time>2012-12-01T14:06:21Z</time>
      </trkpt>
      <trkpt lat="50.86964" lon="1.87088">
        <ele>7.347168</ele>
        <time>2012-12-01T14:06:28Z</time>
      </trkpt>
      <trkpt lat="50.86966" lon="1.87089">
        <ele>8.3085938</ele>
        <time>2012-12-01T14:06:32Z</time>
      </trkpt>
      <trkpt lat="50.8697" lon="1.87102">
        <ele>16.9604492</ele>
        <time>2012-12-01T14:06:50Z</time>
      </trkpt>
      <trkpt lat="50.86965" lon="1.87108">
        <ele>30.4188232</ele>
        <time>2012-12-01T14:06:54Z</time>
      </trkpt>
      <trkpt lat="50.86968" lon="1.87118">
        <ele>30.8995361</ele>
        <time>2012-12-01T14:07:01Z</time>
      </trkpt>
      <trkpt lat="50.86972" lon="1.87125">
        <ele>21.286377</ele>
        <time>2012-12-01T14:07:05Z</time>
      </trkpt>
      <trkpt lat="50.86977" lon="1.87134">
        <ele>12.6343994</ele>
        <time>2012-12-01T14:07:11Z</time>
      </trkpt>
      <trkpt lat="50.86979" lon="1.87154">
        <ele>6.8664551</ele>
        <time>2012-12-01T14:07:19Z</time>
      </trkpt>
      <trkpt lat="50.86973" lon="1.87159">
        <ele>7.8278809</ele>
        <time>2012-12-01T14:07:26Z</time>
      </trkpt>
      <trkpt lat="50.86963" lon="1.87171">
        <ele>12.1538086</ele>
        <time>2012-12-01T14:07:36Z</time>
      </trkpt>
      <trkpt lat="50.86962" lon="1.87178">
        <ele>12.6343994</ele>
        <time>2012-12-01T14:07:41Z</time>
      </trkpt>
      <trkpt lat="50.86966" lon="1.87186">
        <ele>9.7506104</ele>
        <time>2012-12-01T14:07:46Z</time>
      </trkpt>
      <trkpt lat="50.86972" lon="1.87196">
        <ele>6.8664551</ele>
        <time>2012-12-01T14:07:54Z</time>
      </trkpt>
      <trkpt lat="50.86978" lon="1.87209">
        <ele>3.5019531</ele>
        <time>2012-12-01T14:08:02Z</time>
      </trkpt>
      <trkpt lat="50.86982" lon="1.87215">
        <ele>3.5019531</ele>
        <time>2012-12-01T14:08:09Z</time>
      </trkpt>
      <trkpt lat="50.86983" lon="1.87215">
        <ele>3.982666</ele>
        <time>2012-12-01T14:08:12Z</time>
      </trkpt>
      <trkpt lat="50.86991" lon="1.87228">
        <ele>0.618042</ele>
        <time>2012-12-01T14:08:18Z</time>
      </trkpt>
      <trkpt lat="50.86991" lon="1.87242">
        <ele>0.1374512</ele>
        <time>2012-12-01T14:08:25Z</time>
      </trkpt>
      <trkpt lat="50.86989" lon="1.87254">
        <ele>1.5793457</ele>
        <time>2012-12-01T14:08:32Z</time>
      </trkpt>
      <trkpt lat="50.86989" lon="1.8726">
        <ele>3.0212402</ele>
        <time>2012-12-01T14:08:36Z</time>
      </trkpt>
      <trkpt lat="50.8699" lon="1.87262">
        <ele>4.4632568</ele>
        <time>2012-12-01T14:08:38Z</time>
      </trkpt>
      <trkpt lat="50.86989" lon="1.87268">
        <ele>2.0600586</ele>
        <time>2012-12-01T14:08:42Z</time>
      </trkpt>
      <trkpt lat="50.86986" lon="1.87275">
        <ele>4.4632568</ele>
        <time>2012-12-01T14:08:47Z</time>
      </trkpt>
      <trkpt lat="50.86985" lon="1.87282">
        <ele>2.5406494</ele>
        <time>2012-12-01T14:08:54Z</time>
      </trkpt>
      <trkpt lat="50.86987" lon="1.87288">
        <ele>2.0600586</ele>
        <time>2012-12-01T14:09:03Z</time>
      </trkpt>
      <trkpt lat="50.86987" lon="1.87298">
        <ele>-1.7852783</ele>
        <time>2012-12-01T14:09:08Z</time>
      </trkpt>
      <trkpt lat="50.8698" lon="1.87326">
        <ele>0.1374512</ele>
        <time>2012-12-01T14:09:29Z</time>
      </trkpt>
      <trkpt lat="50.86975" lon="1.87323">
        <ele>5.4245605</ele>
        <time>2012-12-01T14:09:35Z</time>
      </trkpt>
      <trkpt lat="50.86967" lon="1.87322">
        <ele>7.8278809</ele>
        <time>2012-12-01T14:09:44Z</time>
      </trkpt>
      <trkpt lat="50.86961" lon="1.87322">
        <ele>7.8278809</ele>
        <time>2012-12-01T14:09:49Z</time>
      </trkpt>
      <trkpt lat="50.86953" lon="1.87328">
        <ele>3.982666</ele>
        <time>2012-12-01T14:09:59Z</time>
      </trkpt>
      <trkpt lat="50.86943" lon="1.87325">
        <ele>3.5019531</ele>
        <time>2012-12-01T14:10:07Z</time>
      </trkpt>
      <trkpt lat="50.86938" lon="1.8732">
        <ele>3.5019531</ele>
        <time>2012-12-01T14:10:13Z</time>
      </trkpt>
      <trkpt lat="50.8693" lon="1.87313">
        <ele>6.8664551</ele>
        <time>2012-12-01T14:10:20Z</time>
      </trkpt>
      <trkpt lat="50.86916" lon="1.87303">
        <ele>6.8664551</ele>
        <time>2012-12-01T14:10:30Z</time>
      </trkpt>
      <trkpt lat="50.86906" lon="1.87293">
        <ele>5.9052734</ele>
        <time>2012-12-01T14:10:40Z</time>
      </trkpt>
      <trkpt lat="50.86901" lon="1.87289">
        <ele>2.0600586</ele>
        <time>2012-12-01T14:10:46Z</time>
      </trkpt>
      <trkpt lat="50.86898" lon="1.87284">
        <ele>-1.7852783</ele>
        <time>2012-12-01T14:10:51Z</time>
      </trkpt>
      <trkpt lat="50.86898" lon="1.87284">
        <ele>-3.2272949</ele>
        <time>2012-12-01T14:10:52Z</time>
      </trkpt>
      <trkpt lat="50.86891" lon="1.87283">
        <ele>-1.3046875</ele>
        <time>2012-12-01T14:10:58Z</time>
      </trkpt>
      <trkpt lat="50.86889" lon="1.87286">
        <ele>-0.8240967</ele>
        <time>2012-12-01T14:11:01Z</time>
      </trkpt>
      <trkpt lat="50.86881" lon="1.87296">
        <ele>3.0212402</ele>
        <time>2012-12-01T14:11:09Z</time>
      </trkpt>
      <trkpt lat="50.86875" lon="1.87303">
        <ele>3.5019531</ele>
        <time>2012-12-01T14:11:15Z</time>
      </trkpt>
      <trkpt lat="50.86867" lon="1.87313">
        <ele>7.8278809</ele>
        <time>2012-12-01T14:11:23Z</time>
      </trkpt>
      <trkpt lat="50.86863" lon="1.87324">
        <ele>10.2312012</ele>
        <time>2012-12-01T14:11:30Z</time>
      </trkpt>
      <trkpt lat="50.86862" lon="1.87325">
        <ele>10.711792</ele>
        <time>2012-12-01T14:11:31Z</time>
      </trkpt>
      <trkpt lat="50.86859" lon="1.8734">
        <ele>9.2698975</ele>
        <time>2012-12-01T14:11:40Z</time>
      </trkpt>
      <trkpt lat="50.86852" lon="1.87355">
        <ele>10.711792</ele>
        <time>2012-12-01T14:11:49Z</time>
      </trkpt>
      <trkpt lat="50.86847" lon="1.87369">
        <ele>8.3085938</ele>
        <time>2012-12-01T14:11:57Z</time>
      </trkpt>
      <trkpt lat="50.86846" lon="1.87376">
        <ele>8.7891846</ele>
        <time>2012-12-01T14:12:02Z</time>
      </trkpt>
      <trkpt lat="50.86841" lon="1.87381">
        <ele>9.2698975</ele>
        <time>2012-12-01T14:12:08Z</time>
      </trkpt>
      <trkpt lat="50.86839" lon="1.87383">
        <ele>9.2698975</ele>
        <time>2012-12-01T14:12:10Z</time>
      </trkpt>
      <trkpt lat="50.86829" lon="1.87395">
        <ele>11.6732178</ele>
        <time>2012-12-01T14:12:19Z</time>
      </trkpt>
      <trkpt lat="50.86825" lon="1.874">
        <ele>10.711792</ele>
        <time>2012-12-01T14:12:23Z</time>
      </trkpt>
      <trkpt lat="50.86817" lon="1.87404">
        <ele>11.6732178</ele>
        <time>2012-12-01T14:12:30Z</time>
      </trkpt>
      <trkpt lat="50.86814" lon="1.87407">
        <ele>11.1925049</ele>
        <time>2012-12-01T14:12:33Z</time>
      </trkpt>
      <trkpt lat="50.86813" lon="1.8741">
        <ele>10.711792</ele>
        <time>2012-12-01T14:12:35Z</time>
      </trkpt>
      <trkpt lat="50.86808" lon="1.87422">
        <ele>9.2698975</ele>
        <time>2012-12-01T14:12:43Z</time>
      </trkpt>
      <trkpt lat="50.86803" lon="1.87433">
        <ele>10.2312012</ele>
        <time>2012-12-01T14:12:49Z</time>
      </trkpt>
      <trkpt lat="50.86796" lon="1.87441">
        <ele>11.1925049</ele>
        <time>2012-12-01T14:12:56Z</time>
      </trkpt>
      <trkpt lat="50.86789" lon="1.87455">
        <ele>11.1925049</ele>
        <time>2012-12-01T14:13:05Z</time>
      </trkpt>
      <trkpt lat="50.86781" lon="1.87467">
        <ele>13.1151123</ele>
        <time>2012-12-01T14:13:13Z</time>
      </trkpt>
      <trkpt lat="50.86774" lon="1.87476">
        <ele>15.0377197</ele>
        <time>2012-12-01T14:13:20Z</time>
      </trkpt>
      <trkpt lat="50.86769" lon="1.87485">
        <ele>14.076416</ele>
        <time>2012-12-01T14:13:26Z</time>
      </trkpt>
      <trkpt lat="50.86763" lon="1.87494">
        <ele>13.1151123</ele>
        <time>2012-12-01T14:13:33Z</time>
      </trkpt>
      <trkpt lat="50.86759" lon="1.87504">
        <ele>10.2312012</ele>
        <time>2012-12-01T14:13:40Z</time>
      </trkpt>
      <trkpt lat="50.86751" lon="1.87518">
        <ele>8.7891846</ele>
        <time>2012-12-01T14:13:49Z</time>
      </trkpt>
      <trkpt lat="50.86742" lon="1.8753">
        <ele>10.2312012</ele>
        <time>2012-12-01T14:13:58Z</time>
      </trkpt>
      <trkpt lat="50.86733" lon="1.87542">
        <ele>12.1538086</ele>
        <time>2012-12-01T14:14:07Z</time>
      </trkpt>
      <trkpt lat="50.86726" lon="1.87554">
        <ele>11.1925049</ele>
        <time>2012-12-01T14:14:15Z</time>
      </trkpt>
      <trkpt lat="50.86719" lon="1.87566">
        <ele>11.1925049</ele>
        <time>2012-12-01T14:14:24Z</time>
      </trkpt>
      <trkpt lat="50.86709" lon="1.87578">
        <ele>12.6343994</ele>
        <time>2012-12-01T14:14:33Z</time>
      </trkpt>
      <trkpt lat="50.86701" lon="1.87588">
        <ele>13.5958252</ele>
        <time>2012-12-01T14:14:41Z</time>
      </trkpt>
      <trkpt lat="50.86692" lon="1.87598">
        <ele>15.5184326</ele>
        <time>2012-12-01T14:14:50Z</time>
      </trkpt>
      <trkpt lat="50.86685" lon="1.876">
        <ele>19.3637695</ele>
        <time>2012-12-01T14:14:56Z</time>
      </trkpt>
      <trkpt lat="50.86682" lon="1.87604">
        <ele>18.8830566</ele>
        <time>2012-12-01T14:15:00Z</time>
      </trkpt>
      <trkpt lat="50.8667" lon="1.87617">
        <ele>25.1317139</ele>
        <time>2012-12-01T14:15:09Z</time>
      </trkpt>
      <trkpt lat="50.86667" lon="1.8763">
        <ele>17.9217529</ele>
        <time>2012-12-01T14:15:17Z</time>
      </trkpt>
      <trkpt lat="50.86663" lon="1.8764">
        <ele>13.1151123</ele>
        <time>2012-12-01T14:15:24Z</time>
      </trkpt>
      <trkpt lat="50.86657" lon="1.8765">
        <ele>12.1538086</ele>
        <time>2012-12-01T14:15:31Z</time>
      </trkpt>
      <trkpt lat="50.86655" lon="1.87656">
        <ele>10.711792</ele>
        <time>2012-12-01T14:15:35Z</time>
      </trkpt>
      <trkpt lat="50.86648" lon="1.87668">
        <ele>10.2312012</ele>
        <time>2012-12-01T14:15:43Z</time>
      </trkpt>
      <trkpt lat="50.86641" lon="1.87676">
        <ele>13.5958252</ele>
        <time>2012-12-01T14:15:51Z</time>
      </trkpt>
      <trkpt lat="50.86631" lon="1.87681">
        <ele>13.5958252</ele>
        <time>2012-12-01T14:16:00Z</time>
      </trkpt>
      <trkpt lat="50.86622" lon="1.87685">
        <ele>15.0377197</ele>
        <time>2012-12-01T14:16:09Z</time>
      </trkpt>
      <trkpt lat="50.86613" lon="1.87692">
        <ele>19.3637695</ele>
        <time>2012-12-01T14:16:17Z</time>
      </trkpt>
      <trkpt lat="50.86607" lon="1.87697">
        <ele>17.4411621</ele>
        <time>2012-12-01T14:16:24Z</time>
      </trkpt>
      <trkpt lat="50.86604" lon="1.87697">
        <ele>17.9217529</ele>
        <time>2012-12-01T14:16:27Z</time>
      </trkpt>
      <trkpt lat="50.86597" lon="1.87694">
        <ele>15.9990234</ele>
        <time>2012-12-01T14:16:34Z</time>
      </trkpt>
      <trkpt lat="50.86592" lon="1.877">
        <ele>17.4411621</ele>
        <time>2012-12-01T14:16:40Z</time>
      </trkpt>
      <trkpt lat="50.86581" lon="1.87706">
        <ele>22.7282715</ele>
        <time>2012-12-01T14:16:49Z</time>
      </trkpt>
      <trkpt lat="50.86569" lon="1.87715">
        <ele>25.1317139</ele>
        <time>2012-12-01T14:16:59Z</time>
      </trkpt>
      <trkpt lat="50.86562" lon="1.87722">
        <ele>25.1317139</ele>
        <time>2012-12-01T14:17:06Z</time>
      </trkpt>
      <trkpt lat="50.86554" lon="1.87732">
        <ele>22.2475586</ele>
        <time>2012-12-01T14:17:16Z</time>
      </trkpt>
      <trkpt lat="50.86547" lon="1.87741">
        <ele>18.8830566</ele>
        <time>2012-12-01T14:17:24Z</time>
      </trkpt>
      <trkpt lat="50.86539" lon="1.8775">
        <ele>18.8830566</ele>
        <time>2012-12-01T14:17:32Z</time>
      </trkpt>
      <trkpt lat="50.86531" lon="1.87759">
        <ele>18.4023438</ele>
        <time>2012-12-01T14:17:41Z</time>
      </trkpt>
      <trkpt lat="50.86522" lon="1.87768">
        <ele>18.8830566</ele>
        <time>2012-12-01T14:17:50Z</time>
      </trkpt>
      <trkpt lat="50.86514" lon="1.87779">
        <ele>18.8830566</ele>
        <time>2012-12-01T14:17:59Z</time>
      </trkpt>
      <trkpt lat="50.86505" lon="1.8779">
        <ele>17.4411621</ele>
        <time>2012-12-01T14:18:09Z</time>
      </trkpt>
      <trkpt lat="50.86496" lon="1.878">
        <ele>16.4797363</ele>
        <time>2012-12-01T14:18:20Z</time>
      </trkpt>
      <trkpt lat="50.86485" lon="1.8781">
        <ele>14.076416</ele>
        <time>2012-12-01T14:18:32Z</time>
      </trkpt>
      <trkpt lat="50.86476" lon="1.87818">
        <ele>13.1151123</ele>
        <time>2012-12-01T14:18:42Z</time>
      </trkpt>
      <trkpt lat="50.86467" lon="1.87828">
        <ele>12.6343994</ele>
        <time>2012-12-01T14:18:51Z</time>
      </trkpt>
      <trkpt lat="50.86459" lon="1.87836">
        <ele>10.711792</ele>
        <time>2012-12-01T14:19:00Z</time>
      </trkpt>
      <trkpt lat="50.86451" lon="1.87844">
        <ele>10.2312012</ele>
        <time>2012-12-01T14:19:08Z</time>
      </trkpt>
      <trkpt lat="50.86442" lon="1.87853">
        <ele>10.711792</ele>
        <time>2012-12-01T14:19:18Z</time>
      </trkpt>
      <trkpt lat="50.86433" lon="1.87863">
        <ele>11.6732178</ele>
        <time>2012-12-01T14:19:27Z</time>
      </trkpt>
      <trkpt lat="50.86424" lon="1.87872">
        <ele>12.1538086</ele>
        <time>2012-12-01T14:19:36Z</time>
      </trkpt>
      <trkpt lat="50.86414" lon="1.87884">
        <ele>14.076416</ele>
        <time>2012-12-01T14:19:46Z</time>
      </trkpt>
      <trkpt lat="50.86403" lon="1.87894">
        <ele>18.4023438</ele>
        <time>2012-12-01T14:19:55Z</time>
      </trkpt>
      <trkpt lat="50.86394" lon="1.87905">
        <ele>22.7282715</ele>
        <time>2012-12-01T14:20:02Z</time>
      </trkpt>
      <trkpt lat="50.86387" lon="1.87913">
        <ele>21.286377</ele>
        <time>2012-12-01T14:20:10Z</time>
      </trkpt>
      <trkpt lat="50.86378" lon="1.87923">
        <ele>21.286377</ele>
        <time>2012-12-01T14:20:19Z</time>
      </trkpt>
      <trkpt lat="50.8637" lon="1.87931">
        <ele>18.8830566</ele>
        <time>2012-12-01T14:20:28Z</time>
      </trkpt>
      <trkpt lat="50.86362" lon="1.8794">
        <ele>20.8056641</ele>
        <time>2012-12-01T14:20:35Z</time>
      </trkpt>
      <trkpt lat="50.86354" lon="1.87948">
        <ele>20.3249512</ele>
        <time>2012-12-01T14:20:45Z</time>
      </trkpt>
      <trkpt lat="50.86344" lon="1.87958">
        <ele>19.8443604</ele>
        <time>2012-12-01T14:20:56Z</time>
      </trkpt>
      <trkpt lat="50.86335" lon="1.87971">
        <ele>25.1317139</ele>
        <time>2012-12-01T14:21:04Z</time>
      </trkpt>
      <trkpt lat="50.86325" lon="1.87982">
        <ele>27.0543213</ele>
        <time>2012-12-01T14:21:13Z</time>
      </trkpt>
      <trkpt lat="50.86316" lon="1.87993">
        <ele>30.8995361</ele>
        <time>2012-12-01T14:21:21Z</time>
      </trkpt>
      <trkpt lat="50.86313" lon="1.87994">
        <ele>28.4962158</ele>
        <time>2012-12-01T14:21:30Z</time>
      </trkpt>
      <trkpt lat="50.86312" lon="1.87997">
        <ele>28.9769287</ele>
        <time>2012-12-01T14:21:37Z</time>
      </trkpt>
      <trkpt lat="50.86309" lon="1.87992">
        <ele>27.5349121</ele>
        <time>2012-12-01T14:21:43Z</time>
      </trkpt>
      <trkpt lat="50.86309" lon="1.8799">
        <ele>27.5349121</ele>
        <time>2012-12-01T14:21:44Z</time>
      </trkpt>
      <trkpt lat="50.86304" lon="1.87986">
        <ele>27.0543213</ele>
        <time>2012-12-01T14:21:49Z</time>
      </trkpt>
      <trkpt lat="50.86303" lon="1.87984">
        <ele>22.7282715</ele>
        <time>2012-12-01T14:21:53Z</time>
      </trkpt>
      <trkpt lat="50.86301" lon="1.87986">
        <ele>23.2089844</ele>
        <time>2012-12-01T14:21:55Z</time>
      </trkpt>
      <trkpt lat="50.86299" lon="1.87996">
        <ele>22.7282715</ele>
        <time>2012-12-01T14:22:03Z</time>
      </trkpt>
      <trkpt lat="50.86294" lon="1.88004">
        <ele>21.7669678</ele>
        <time>2012-12-01T14:22:09Z</time>
      </trkpt>
      <trkpt lat="50.86288" lon="1.88012">
        <ele>23.6895752</ele>
        <time>2012-12-01T14:22:15Z</time>
      </trkpt>
      <trkpt lat="50.8628" lon="1.88017">
        <ele>26.5736084</ele>
        <time>2012-12-01T14:22:21Z</time>
      </trkpt>
      <trkpt lat="50.86275" lon="1.88016">
        <ele>24.651001</ele>
        <time>2012-12-01T14:22:26Z</time>
      </trkpt>
      <trkpt lat="50.86268" lon="1.88018">
        <ele>23.2089844</ele>
        <time>2012-12-01T14:22:33Z</time>
      </trkpt>
      <trkpt lat="50.86258" lon="1.88025">
        <ele>24.651001</ele>
        <time>2012-12-01T14:22:42Z</time>
      </trkpt>
      <trkpt lat="50.86247" lon="1.88028">
        <ele>28.9769287</ele>
        <time>2012-12-01T14:22:50Z</time>
      </trkpt>
      <trkpt lat="50.86239" lon="1.88028">
        <ele>27.5349121</ele>
        <time>2012-12-01T14:22:56Z</time>
      </trkpt>
      <trkpt lat="50.86232" lon="1.88029">
        <ele>25.6123047</ele>
        <time>2012-12-01T14:23:02Z</time>
      </trkpt>
      <trkpt lat="50.86226" lon="1.88028">
        <ele>25.1317139</ele>
        <time>2012-12-01T14:23:07Z</time>
      </trkpt>
      <trkpt lat="50.86213" lon="1.88028">
        <ele>30.8995361</ele>
        <time>2012-12-01T14:23:14Z</time>
      </trkpt>
      <trkpt lat="50.86211" lon="1.88029">
        <ele>30.8995361</ele>
        <time>2012-12-01T14:23:16Z</time>
      </trkpt>
      <trkpt lat="50.86201" lon="1.88032">
        <ele>30.4188232</ele>
        <time>2012-12-01T14:23:24Z</time>
      </trkpt>
      <trkpt lat="50.86192" lon="1.88034">
        <ele>28.9769287</ele>
        <time>2012-12-01T14:23:31Z</time>
      </trkpt>
      <trkpt lat="50.86184" lon="1.88037">
        <ele>25.1317139</ele>
        <time>2012-12-01T14:23:39Z</time>
      </trkpt>
      <trkpt lat="50.86176" lon="1.88044">
        <ele>20.3249512</ele>
        <time>2012-12-01T14:23:47Z</time>
      </trkpt>
      <trkpt lat="50.86167" lon="1.88047">
        <ele>21.286377</ele>
        <time>2012-12-01T14:23:54Z</time>
      </trkpt>
      <trkpt lat="50.86159" lon="1.88049">
        <ele>21.286377</ele>
        <time>2012-12-01T14:24:01Z</time>
      </trkpt>
      <trkpt lat="50.86146" lon="1.88053">
        <ele>20.3249512</ele>
        <time>2012-12-01T14:24:12Z</time>
      </trkpt>
      <trkpt lat="50.86134" lon="1.88055">
        <ele>21.286377</ele>
        <time>2012-12-01T14:24:21Z</time>
      </trkpt>
      <trkpt lat="50.86121" lon="1.88059">
        <ele>20.8056641</ele>
        <time>2012-12-01T14:24:32Z</time>
      </trkpt>
      <trkpt lat="50.8611" lon="1.88062">
        <ele>20.8056641</ele>
        <time>2012-12-01T14:24:41Z</time>
      </trkpt>
      <trkpt lat="50.86098" lon="1.88065">
        <ele>21.7669678</ele>
        <time>2012-12-01T14:24:51Z</time>
      </trkpt>
      <trkpt lat="50.86084" lon="1.88067">
        <ele>22.2475586</ele>
        <time>2012-12-01T14:25:02Z</time>
      </trkpt>
      <trkpt lat="50.86075" lon="1.88068">
        <ele>20.8056641</ele>
        <time>2012-12-01T14:25:10Z</time>
      </trkpt>
      <trkpt lat="50.86066" lon="1.88069">
        <ele>20.8056641</ele>
        <time>2012-12-01T14:25:18Z</time>
      </trkpt>
      <trkpt lat="50.86054" lon="1.8807">
        <ele>20.8056641</ele>
        <time>2012-12-01T14:25:28Z</time>
      </trkpt>
      <trkpt lat="50.86047" lon="1.88069">
        <ele>21.286377</ele>
        <time>2012-12-01T14:25:35Z</time>
      </trkpt>
      <trkpt lat="50.86039" lon="1.88069">
        <ele>21.286377</ele>
        <time>2012-12-01T14:25:44Z</time>
      </trkpt>
      <trkpt lat="50.86032" lon="1.88071">
        <ele>21.286377</ele>
        <time>2012-12-01T14:25:50Z</time>
      </trkpt>
      <trkpt lat="50.86025" lon="1.88077">
        <ele>21.286377</ele>
        <time>2012-12-01T14:25:57Z</time>
      </trkpt>
      <trkpt lat="50.86024" lon="1.88077">
        <ele>21.286377</ele>
        <time>2012-12-01T14:25:58Z</time>
      </trkpt>
      <trkpt lat="50.86011" lon="1.8808">
        <ele>21.7669678</ele>
        <time>2012-12-01T14:26:09Z</time>
      </trkpt>
      <trkpt lat="50.86" lon="1.88085">
        <ele>22.2475586</ele>
        <time>2012-12-01T14:26:18Z</time>
      </trkpt>
      <trkpt lat="50.85986" lon="1.88091">
        <ele>22.2475586</ele>
        <time>2012-12-01T14:26:29Z</time>
      </trkpt>
      <trkpt lat="50.85976" lon="1.88095">
        <ele>22.2475586</ele>
        <time>2012-12-01T14:26:38Z</time>
      </trkpt>
      <trkpt lat="50.85964" lon="1.88099">
        <ele>22.2475586</ele>
        <time>2012-12-01T14:26:48Z</time>
      </trkpt>
      <trkpt lat="50.85951" lon="1.88104">
        <ele>21.7669678</ele>
        <time>2012-12-01T14:26:59Z</time>
      </trkpt>
      <trkpt lat="50.85939" lon="1.88109">
        <ele>22.7282715</ele>
        <time>2012-12-01T14:27:09Z</time>
      </trkpt>
      <trkpt lat="50.85928" lon="1.88113">
        <ele>23.2089844</ele>
        <time>2012-12-01T14:27:18Z</time>
      </trkpt>
      <trkpt lat="50.85917" lon="1.88117">
        <ele>23.2089844</ele>
        <time>2012-12-01T14:27:27Z</time>
      </trkpt>
      <trkpt lat="50.8591" lon="1.88121">
        <ele>24.1702881</ele>
        <time>2012-12-01T14:27:33Z</time>
      </trkpt>
      <trkpt lat="50.85901" lon="1.88123">
        <ele>24.1702881</ele>
        <time>2012-12-01T14:27:40Z</time>
      </trkpt>
      <trkpt lat="50.85893" lon="1.88127">
        <ele>24.1702881</ele>
        <time>2012-12-01T14:27:47Z</time>
      </trkpt>
      <trkpt lat="50.8588" lon="1.88132">
        <ele>24.1702881</ele>
        <time>2012-12-01T14:27:58Z</time>
      </trkpt>
      <trkpt lat="50.85879" lon="1.88132">
        <ele>24.1702881</ele>
        <time>2012-12-01T14:27:59Z</time>
      </trkpt>
      <trkpt lat="50.85871" lon="1.88136">
        <ele>24.1702881</ele>
        <time>2012-12-01T14:28:07Z</time>
      </trkpt>
      <trkpt lat="50.8586" lon="1.8814">
        <ele>24.1702881</ele>
        <time>2012-12-01T14:28:16Z</time>
      </trkpt>
      <trkpt lat="50.85849" lon="1.88143">
        <ele>24.1702881</ele>
        <time>2012-12-01T14:28:26Z</time>
      </trkpt>
      <trkpt lat="50.85839" lon="1.88147">
        <ele>24.651001</ele>
        <time>2012-12-01T14:28:34Z</time>
      </trkpt>
      <trkpt lat="50.85828" lon="1.88151">
        <ele>24.651001</ele>
        <time>2012-12-01T14:28:43Z</time>
      </trkpt>
      <trkpt lat="50.85815" lon="1.88157">
        <ele>25.1317139</ele>
        <time>2012-12-01T14:28:55Z</time>
      </trkpt>
      <trkpt lat="50.85803" lon="1.88162">
        <ele>25.6123047</ele>
        <time>2012-12-01T14:29:05Z</time>
      </trkpt>
      <trkpt lat="50.85794" lon="1.88166">
        <ele>25.6123047</ele>
        <time>2012-12-01T14:29:13Z</time>
      </trkpt>
      <trkpt lat="50.85782" lon="1.8817">
        <ele>25.6123047</ele>
        <time>2012-12-01T14:29:23Z</time>
      </trkpt>
      <trkpt lat="50.85771" lon="1.88174">
        <ele>26.0928955</ele>
        <time>2012-12-01T14:29:32Z</time>
      </trkpt>
      <trkpt lat="50.85761" lon="1.88177">
        <ele>27.0543213</ele>
        <time>2012-12-01T14:29:40Z</time>
      </trkpt>
      <trkpt lat="50.85749" lon="1.88182">
        <ele>27.5349121</ele>
        <time>2012-12-01T14:29:50Z</time>
      </trkpt>
      <trkpt lat="50.85738" lon="1.88184">
        <ele>27.5349121</ele>
        <time>2012-12-01T14:29:59Z</time>
      </trkpt>
      <trkpt lat="50.85726" lon="1.88191">
        <ele>28.0155029</ele>
        <time>2012-12-01T14:30:09Z</time>
      </trkpt>
      <trkpt lat="50.85716" lon="1.88198">
        <ele>28.4962158</ele>
        <time>2012-12-01T14:30:17Z</time>
      </trkpt>
      <trkpt lat="50.85705" lon="1.88207">
        <ele>28.9769287</ele>
        <time>2012-12-01T14:30:27Z</time>
      </trkpt>
      <trkpt lat="50.85694" lon="1.88214">
        <ele>29.4575195</ele>
        <time>2012-12-01T14:30:37Z</time>
      </trkpt>
      <trkpt lat="50.85685" lon="1.8822">
        <ele>28.4962158</ele>
        <time>2012-12-01T14:30:46Z</time>
      </trkpt>
      <trkpt lat="50.85676" lon="1.88226">
        <ele>27.0543213</ele>
        <time>2012-12-01T14:30:55Z</time>
      </trkpt>
      <trkpt lat="50.85669" lon="1.88233">
        <ele>27.5349121</ele>
        <time>2012-12-01T14:31:01Z</time>
      </trkpt>
      <trkpt lat="50.85659" lon="1.88239">
        <ele>29.4575195</ele>
        <time>2012-12-01T14:31:09Z</time>
      </trkpt>
      <trkpt lat="50.8565" lon="1.88245">
        <ele>31.8607178</ele>
        <time>2012-12-01T14:31:16Z</time>
      </trkpt>
      <trkpt lat="50.85642" lon="1.88249">
        <ele>32.8222656</ele>
        <time>2012-12-01T14:31:23Z</time>
      </trkpt>
      <trkpt lat="50.85631" lon="1.88257">
        <ele>32.8222656</ele>
        <time>2012-12-01T14:31:33Z</time>
      </trkpt>
      <trkpt lat="50.85623" lon="1.88261">
        <ele>31.380127</ele>
        <time>2012-12-01T14:31:41Z</time>
      </trkpt>
      <trkpt lat="50.85613" lon="1.88267">
        <ele>31.380127</ele>
        <time>2012-12-01T14:31:50Z</time>
      </trkpt>
      <trkpt lat="50.85605" lon="1.88273">
        <ele>30.8995361</ele>
        <time>2012-12-01T14:31:58Z</time>
      </trkpt>
      <trkpt lat="50.85594" lon="1.88278">
        <ele>30.8995361</ele>
        <time>2012-12-01T14:32:07Z</time>
      </trkpt>
      <trkpt lat="50.85581" lon="1.88284">
        <ele>31.380127</ele>
        <time>2012-12-01T14:32:18Z</time>
      </trkpt>
      <trkpt lat="50.85572" lon="1.88288">
        <ele>32.3415527</ele>
        <time>2012-12-01T14:32:26Z</time>
      </trkpt>
      <trkpt lat="50.85566" lon="1.88292">
        <ele>32.3415527</ele>
        <time>2012-12-01T14:32:31Z</time>
      </trkpt>
      <trkpt lat="50.85556" lon="1.88296">
        <ele>33.3028564</ele>
        <time>2012-12-01T14:32:39Z</time>
      </trkpt>
      <trkpt lat="50.85555" lon="1.88297">
        <ele>33.3028564</ele>
        <time>2012-12-01T14:32:40Z</time>
      </trkpt>
      <trkpt lat="50.85546" lon="1.88302">
        <ele>33.7834473</ele>
        <time>2012-12-01T14:32:48Z</time>
      </trkpt>
      <trkpt lat="50.85538" lon="1.88305">
        <ele>34.2641602</ele>
        <time>2012-12-01T14:32:54Z</time>
      </trkpt>
      <trkpt lat="50.85529" lon="1.88308">
        <ele>34.744873</ele>
        <time>2012-12-01T14:33:02Z</time>
      </trkpt>
      <trkpt lat="50.85519" lon="1.88312">
        <ele>34.744873</ele>
        <time>2012-12-01T14:33:10Z</time>
      </trkpt>
      <trkpt lat="50.85512" lon="1.88314">
        <ele>34.744873</ele>
        <time>2012-12-01T14:33:16Z</time>
      </trkpt>
      <trkpt lat="50.855" lon="1.88318">
        <ele>34.744873</ele>
        <time>2012-12-01T14:33:26Z</time>
      </trkpt>
      <trkpt lat="50.85485" lon="1.88324">
        <ele>34.2641602</ele>
        <time>2012-12-01T14:33:38Z</time>
      </trkpt>
      <trkpt lat="50.85475" lon="1.88329">
        <ele>34.2641602</ele>
        <time>2012-12-01T14:33:47Z</time>
      </trkpt>
      <trkpt lat="50.85465" lon="1.88335">
        <ele>33.7834473</ele>
        <time>2012-12-01T14:33:56Z</time>
      </trkpt>
      <trkpt lat="50.85455" lon="1.88341">
        <ele>33.3028564</ele>
        <time>2012-12-01T14:34:06Z</time>
      </trkpt>
      <trkpt lat="50.85445" lon="1.88347">
        <ele>33.3028564</ele>
        <time>2012-12-01T14:34:15Z</time>
      </trkpt>
      <trkpt lat="50.85433" lon="1.88354">
        <ele>33.3028564</ele>
        <time>2012-12-01T14:34:26Z</time>
      </trkpt>
      <trkpt lat="50.8542" lon="1.88362">
        <ele>33.3028564</ele>
        <time>2012-12-01T14:34:38Z</time>
      </trkpt>
      <trkpt lat="50.85411" lon="1.88367">
        <ele>33.3028564</ele>
        <time>2012-12-01T14:34:46Z</time>
      </trkpt>
      <trkpt lat="50.85406" lon="1.88368">
        <ele>33.3028564</ele>
        <time>2012-12-01T14:34:53Z</time>
      </trkpt>
      <trkpt lat="50.85398" lon="1.88372">
        <ele>31.8607178</ele>
        <time>2012-12-01T14:35:02Z</time>
      </trkpt>
      <trkpt lat="50.8539" lon="1.88375">
        <ele>31.380127</ele>
        <time>2012-12-01T14:35:11Z</time>
      </trkpt>
      <trkpt lat="50.85382" lon="1.88377">
        <ele>30.8995361</ele>
        <time>2012-12-01T14:35:20Z</time>
      </trkpt>
      <trkpt lat="50.85379" lon="1.88379">
        <ele>30.8995361</ele>
        <time>2012-12-01T14:35:28Z</time>
      </trkpt>
      <trkpt lat="50.85374" lon="1.88382">
        <ele>29.9381104</ele>
        <time>2012-12-01T14:35:35Z</time>
      </trkpt>
      <trkpt lat="50.85369" lon="1.88383">
        <ele>28.9769287</ele>
        <time>2012-12-01T14:35:40Z</time>
      </trkpt>
      <trkpt lat="50.85364" lon="1.88384">
        <ele>28.9769287</ele>
        <time>2012-12-01T14:35:45Z</time>
      </trkpt>
      <trkpt lat="50.8536" lon="1.88386">
        <ele>29.4575195</ele>
        <time>2012-12-01T14:35:51Z</time>
      </trkpt>
      <trkpt lat="50.85353" lon="1.88388">
        <ele>29.9381104</ele>
        <time>2012-12-01T14:35:58Z</time>
      </trkpt>
      <trkpt lat="50.85347" lon="1.88389">
        <ele>29.4575195</ele>
        <time>2012-12-01T14:36:03Z</time>
      </trkpt>
      <trkpt lat="50.85346" lon="1.88389">
        <ele>29.9381104</ele>
        <time>2012-12-01T14:36:04Z</time>
      </trkpt>
      <trkpt lat="50.85342" lon="1.88391">
        <ele>29.4575195</ele>
        <time>2012-12-01T14:36:09Z</time>
      </trkpt>
      <trkpt lat="50.85339" lon="1.88391">
        <ele>29.4575195</ele>
        <time>2012-12-01T14:36:12Z</time>
      </trkpt>
      <trkpt lat="50.85331" lon="1.88393">
        <ele>29.9381104</ele>
        <time>2012-12-01T14:36:19Z</time>
      </trkpt>
      <trkpt lat="50.85324" lon="1.88394">
        <ele>29.9381104</ele>
        <time>2012-12-01T14:36:25Z</time>
      </trkpt>
      <trkpt lat="50.85312" lon="1.88398">
        <ele>29.9381104</ele>
        <time>2012-12-01T14:36:35Z</time>
      </trkpt>
      <trkpt lat="50.85299" lon="1.884">
        <ele>31.380127</ele>
        <time>2012-12-01T14:36:45Z</time>
      </trkpt>
      <trkpt lat="50.85289" lon="1.88403">
        <ele>32.8222656</ele>
        <time>2012-12-01T14:36:53Z</time>
      </trkpt>
      <trkpt lat="50.85279" lon="1.88405">
        <ele>33.3028564</ele>
        <time>2012-12-01T14:37:00Z</time>
      </trkpt>
      <trkpt lat="50.85269" lon="1.88406">
        <ele>33.3028564</ele>
        <time>2012-12-01T14:37:09Z</time>
      </trkpt>
      <trkpt lat="50.85257" lon="1.88408">
        <ele>33.3028564</ele>
        <time>2012-12-01T14:37:18Z</time>
      </trkpt>
      <trkpt lat="50.85244" lon="1.88409">
        <ele>34.2641602</ele>
        <time>2012-12-01T14:37:29Z</time>
      </trkpt>
      <trkpt lat="50.85233" lon="1.88412">
        <ele>34.744873</ele>
        <time>2012-12-01T14:37:38Z</time>
      </trkpt>
      <trkpt lat="50.85223" lon="1.88413">
        <ele>34.744873</ele>
        <time>2012-12-01T14:37:46Z</time>
      </trkpt>
      <trkpt lat="50.85207" lon="1.88415">
        <ele>35.2254639</ele>
        <time>2012-12-01T14:37:59Z</time>
      </trkpt>
      <trkpt lat="50.85195" lon="1.88415">
        <ele>35.7060547</ele>
        <time>2012-12-01T14:38:09Z</time>
      </trkpt>
      <trkpt lat="50.85191" lon="1.88414">
        <ele>35.7060547</ele>
        <time>2012-12-01T14:38:12Z</time>
      </trkpt>
      <trkpt lat="50.85181" lon="1.88416">
        <ele>36.1867676</ele>
        <time>2012-12-01T14:38:20Z</time>
      </trkpt>
      <trkpt lat="50.8517" lon="1.8842">
        <ele>36.1867676</ele>
        <time>2012-12-01T14:38:31Z</time>
      </trkpt>
      <trkpt lat="50.8516" lon="1.88423">
        <ele>37.1480713</ele>
        <time>2012-12-01T14:38:40Z</time>
      </trkpt>
      <trkpt lat="50.85149" lon="1.88427">
        <ele>39.0706787</ele>
        <time>2012-12-01T14:38:49Z</time>
      </trkpt>
      <trkpt lat="50.85143" lon="1.88429">
        <ele>39.0706787</ele>
        <time>2012-12-01T14:38:54Z</time>
      </trkpt>
      <trkpt lat="50.85137" lon="1.8843">
        <ele>39.5512695</ele>
        <time>2012-12-01T14:39:00Z</time>
      </trkpt>
      <trkpt lat="50.8513" lon="1.8843">
        <ele>35.2254639</ele>
        <time>2012-12-01T14:39:06Z</time>
      </trkpt>
      <trkpt lat="50.85122" lon="1.88433">
        <ele>35.7060547</ele>
        <time>2012-12-01T14:39:13Z</time>
      </trkpt>
      <trkpt lat="50.85116" lon="1.88433">
        <ele>37.6286621</ele>
        <time>2012-12-01T14:39:18Z</time>
      </trkpt>
      <trkpt lat="50.85113" lon="1.88434">
        <ele>39.0706787</ele>
        <time>2012-12-01T14:39:21Z</time>
      </trkpt>
      <trkpt lat="50.85098" lon="1.88439">
        <ele>43.8773193</ele>
        <time>2012-12-01T14:39:32Z</time>
      </trkpt>
      <trkpt lat="50.85086" lon="1.8844">
        <ele>43.3966064</ele>
        <time>2012-12-01T14:39:42Z</time>
      </trkpt>
      <trkpt lat="50.85076" lon="1.88441">
        <ele>43.3966064</ele>
        <time>2012-12-01T14:39:50Z</time>
      </trkpt>
      <trkpt lat="50.85067" lon="1.88443">
        <ele>43.3966064</ele>
        <time>2012-12-01T14:39:57Z</time>
      </trkpt>
      <trkpt lat="50.85056" lon="1.88445">
        <ele>43.3966064</ele>
        <time>2012-12-01T14:40:06Z</time>
      </trkpt>
      <trkpt lat="50.85045" lon="1.88447">
        <ele>43.3966064</ele>
        <time>2012-12-01T14:40:15Z</time>
      </trkpt>
      <trkpt lat="50.85035" lon="1.88449">
        <ele>43.3966064</ele>
        <time>2012-12-01T14:40:23Z</time>
      </trkpt>
      <trkpt lat="50.85027" lon="1.88448">
        <ele>42.9160156</ele>
        <time>2012-12-01T14:40:30Z</time>
      </trkpt>
      <trkpt lat="50.85016" lon="1.8845">
        <ele>43.8773193</ele>
        <time>2012-12-01T14:40:38Z</time>
      </trkpt>
      <trkpt lat="50.85008" lon="1.88451">
        <ele>43.3966064</ele>
        <time>2012-12-01T14:40:45Z</time>
      </trkpt>
      <trkpt lat="50.85" lon="1.88451">
        <ele>43.8773193</ele>
        <time>2012-12-01T14:40:52Z</time>
      </trkpt>
      <trkpt lat="50.84991" lon="1.88452">
        <ele>43.3966064</ele>
        <time>2012-12-01T14:40:59Z</time>
      </trkpt>
      <trkpt lat="50.84983" lon="1.88453">
        <ele>42.9160156</ele>
        <time>2012-12-01T14:41:06Z</time>
      </trkpt>
      <trkpt lat="50.8497" lon="1.88454">
        <ele>42.9160156</ele>
        <time>2012-12-01T14:41:16Z</time>
      </trkpt>
      <trkpt lat="50.8496" lon="1.88456">
        <ele>43.3966064</ele>
        <time>2012-12-01T14:41:25Z</time>
      </trkpt>
      <trkpt lat="50.84952" lon="1.88457">
        <ele>42.9160156</ele>
        <time>2012-12-01T14:41:31Z</time>
      </trkpt>
      <trkpt lat="50.8494" lon="1.88459">
        <ele>43.3966064</ele>
        <time>2012-12-01T14:41:40Z</time>
      </trkpt>
      <trkpt lat="50.84927" lon="1.88462">
        <ele>44.3580322</ele>
        <time>2012-12-01T14:41:50Z</time>
      </trkpt>
      <trkpt lat="50.84918" lon="1.88463">
        <ele>44.3580322</ele>
        <time>2012-12-01T14:41:57Z</time>
      </trkpt>
      <trkpt lat="50.84906" lon="1.88465">
        <ele>45.3192139</ele>
        <time>2012-12-01T14:42:06Z</time>
      </trkpt>
      <trkpt lat="50.84896" lon="1.88467">
        <ele>45.7999268</ele>
        <time>2012-12-01T14:42:13Z</time>
      </trkpt>
      <trkpt lat="50.84887" lon="1.88468">
        <ele>47.2418213</ele>
        <time>2012-12-01T14:42:20Z</time>
      </trkpt>
      <trkpt lat="50.84877" lon="1.88469">
        <ele>48.2033691</ele>
        <time>2012-12-01T14:42:27Z</time>
      </trkpt>
      <trkpt lat="50.84867" lon="1.88468">
        <ele>47.2418213</ele>
        <time>2012-12-01T14:42:34Z</time>
      </trkpt>
      <trkpt lat="50.84863" lon="1.88469">
        <ele>47.7225342</ele>
        <time>2012-12-01T14:42:37Z</time>
      </trkpt>
      <trkpt lat="50.84857" lon="1.8847">
        <ele>47.2418213</ele>
        <time>2012-12-01T14:42:42Z</time>
      </trkpt>
      <trkpt lat="50.84853" lon="1.88472">
        <ele>47.2418213</ele>
        <time>2012-12-01T14:42:45Z</time>
      </trkpt>
      <trkpt lat="50.84845" lon="1.88473">
        <ele>46.2806396</ele>
        <time>2012-12-01T14:42:52Z</time>
      </trkpt>
      <trkpt lat="50.84841" lon="1.88473">
        <ele>46.2806396</ele>
        <time>2012-12-01T14:42:55Z</time>
      </trkpt>
      <trkpt lat="50.84831" lon="1.88473">
        <ele>48.2033691</ele>
        <time>2012-12-01T14:43:02Z</time>
      </trkpt>
      <trkpt lat="50.84819" lon="1.88475">
        <ele>48.68396</ele>
        <time>2012-12-01T14:43:12Z</time>
      </trkpt>
      <trkpt lat="50.84806" lon="1.88477">
        <ele>49.6452637</ele>
        <time>2012-12-01T14:43:22Z</time>
      </trkpt>
      <trkpt lat="50.84796" lon="1.88478">
        <ele>51.0871582</ele>
        <time>2012-12-01T14:43:30Z</time>
      </trkpt>
      <trkpt lat="50.84789" lon="1.88479">
        <ele>52.048584</ele>
        <time>2012-12-01T14:43:35Z</time>
      </trkpt>
      <trkpt lat="50.84782" lon="1.88479">
        <ele>52.048584</ele>
        <time>2012-12-01T14:43:41Z</time>
      </trkpt>
      <trkpt lat="50.84779" lon="1.8848">
        <ele>52.048584</ele>
        <time>2012-12-01T14:43:43Z</time>
      </trkpt>
      <trkpt lat="50.84771" lon="1.88481">
        <ele>50.1259766</ele>
        <time>2012-12-01T14:43:49Z</time>
      </trkpt>
      <trkpt lat="50.84767" lon="1.88483">
        <ele>49.6452637</ele>
        <time>2012-12-01T14:43:53Z</time>
      </trkpt>
      <trkpt lat="50.84765" lon="1.88483">
        <ele>48.68396</ele>
        <time>2012-12-01T14:43:57Z</time>
      </trkpt>
      <trkpt lat="50.84757" lon="1.88482">
        <ele>48.2033691</ele>
        <time>2012-12-01T14:44:02Z</time>
      </trkpt>
      <trkpt lat="50.84754" lon="1.88482">
        <ele>47.7225342</ele>
        <time>2012-12-01T14:44:04Z</time>
      </trkpt>
      <trkpt lat="50.84746" lon="1.88483">
        <ele>46.7612305</ele>
        <time>2012-12-01T14:44:11Z</time>
      </trkpt>
      <trkpt lat="50.84744" lon="1.88483">
        <ele>46.2806396</ele>
        <time>2012-12-01T14:44:12Z</time>
      </trkpt>
      <trkpt lat="50.84734" lon="1.88485">
        <ele>45.3192139</ele>
        <time>2012-12-01T14:44:21Z</time>
      </trkpt>
      <trkpt lat="50.84726" lon="1.88486">
        <ele>45.3192139</ele>
        <time>2012-12-01T14:44:28Z</time>
      </trkpt>
      <trkpt lat="50.8472" lon="1.88487">
        <ele>45.7999268</ele>
        <time>2012-12-01T14:44:33Z</time>
      </trkpt>
      <trkpt lat="50.84717" lon="1.88487">
        <ele>45.3192139</ele>
        <time>2012-12-01T14:44:36Z</time>
      </trkpt>
      <trkpt lat="50.84709" lon="1.88489">
        <ele>44.838623</ele>
        <time>2012-12-01T14:44:42Z</time>
      </trkpt>
      <trkpt lat="50.84703" lon="1.88489">
        <ele>46.2806396</ele>
        <time>2012-12-01T14:44:47Z</time>
      </trkpt>
      <trkpt lat="50.84696" lon="1.88492">
        <ele>45.7999268</ele>
        <time>2012-12-01T14:44:53Z</time>
      </trkpt>
      <trkpt lat="50.8469" lon="1.88493">
        <ele>46.2806396</ele>
        <time>2012-12-01T14:44:58Z</time>
      </trkpt>
      <trkpt lat="50.84688" lon="1.88493">
        <ele>46.2806396</ele>
        <time>2012-12-01T14:45:00Z</time>
      </trkpt>
      <trkpt lat="50.84685" lon="1.88492">
        <ele>44.838623</ele>
        <time>2012-12-01T14:45:08Z</time>
      </trkpt>
      <trkpt lat="50.84682" lon="1.88494">
        <ele>44.838623</ele>
        <time>2012-12-01T14:45:13Z</time>
      </trkpt>
      <trkpt lat="50.84675" lon="1.88495">
        <ele>44.838623</ele>
        <time>2012-12-01T14:45:17Z</time>
      </trkpt>
      <trkpt lat="50.84667" lon="1.88494">
        <ele>44.838623</ele>
        <time>2012-12-01T14:45:24Z</time>
      </trkpt>
      <trkpt lat="50.84656" lon="1.8849">
        <ele>45.3192139</ele>
        <time>2012-12-01T14:45:33Z</time>
      </trkpt>
      <trkpt lat="50.84648" lon="1.88488">
        <ele>45.3192139</ele>
        <time>2012-12-01T14:45:40Z</time>
      </trkpt>
      <trkpt lat="50.84641" lon="1.88484">
        <ele>46.2806396</ele>
        <time>2012-12-01T14:45:47Z</time>
      </trkpt>
      <trkpt lat="50.84639" lon="1.88482">
        <ele>46.2806396</ele>
        <time>2012-12-01T14:45:49Z</time>
      </trkpt>
      <trkpt lat="50.8463" lon="1.8848">
        <ele>47.7225342</ele>
        <time>2012-12-01T14:45:58Z</time>
      </trkpt>
      <trkpt lat="50.84624" lon="1.88476">
        <ele>48.68396</ele>
        <time>2012-12-01T14:46:05Z</time>
      </trkpt>
      <trkpt lat="50.8462" lon="1.88469">
        <ele>47.2418213</ele>
        <time>2012-12-01T14:46:14Z</time>
      </trkpt>
      <trkpt lat="50.8462" lon="1.88467">
        <ele>47.7225342</ele>
        <time>2012-12-01T14:46:22Z</time>
      </trkpt>
      <trkpt lat="50.8462" lon="1.88467">
        <ele>47.2418213</ele>
        <time>2012-12-01T14:46:32Z</time>
      </trkpt>
      <trkpt lat="50.84619" lon="1.88466">
        <ele>47.2418213</ele>
        <time>2012-12-01T14:46:45Z</time>
      </trkpt>
      <trkpt lat="50.84618" lon="1.88465">
        <ele>47.7225342</ele>
        <time>2012-12-01T14:46:51Z</time>
      </trkpt>
      <trkpt lat="50.84617" lon="1.88467">
        <ele>47.2418213</ele>
        <time>2012-12-01T14:46:59Z</time>
      </trkpt>
      <trkpt lat="50.84617" lon="1.88466">
        <ele>46.7612305</ele>
        <time>2012-12-01T14:47:04Z</time>
      </trkpt>
      <trkpt lat="50.84617" lon="1.88465">
        <ele>45.7999268</ele>
        <time>2012-12-01T14:47:08Z</time>
      </trkpt>
      <trkpt lat="50.84617" lon="1.88465">
        <ele>45.7999268</ele>
        <time>2012-12-01T14:47:08Z</time>
      </trkpt>
      <trkpt lat="50.84617" lon="1.88465">
        <ele>45.7999268</ele>
        <time>2012-12-01T14:47:11Z</time>
      </trkpt>
      <trkpt lat="50.84618" lon="1.88467">
        <ele>46.2806396</ele>
        <time>2012-12-01T14:47:29Z</time>
      </trkpt>
      <trkpt lat="50.84616" lon="1.8847">
        <ele>49.1645508</ele>
        <time>2012-12-01T14:47:38Z</time>
      </trkpt>
      <trkpt lat="50.84617" lon="1.88468">
        <ele>47.7225342</ele>
        <time>2012-12-01T14:47:44Z</time>
      </trkpt>
      <trkpt lat="50.84617" lon="1.88466">
        <ele>47.7225342</ele>
        <time>2012-12-01T14:47:48Z</time>
      </trkpt>
      <trkpt lat="50.84616" lon="1.88468">
        <ele>48.68396</ele>
        <time>2012-12-01T14:47:56Z</time>
      </trkpt>
      <trkpt lat="50.84616" lon="1.88468">
        <ele>48.68396</ele>
        <time>2012-12-01T14:48:10Z</time>
      </trkpt>
      <trkpt lat="50.84617" lon="1.88468">
        <ele>49.1645508</ele>
        <time>2012-12-01T14:48:17Z</time>
      </trkpt>
      <trkpt lat="50.84618" lon="1.88472">
        <ele>47.7225342</ele>
        <time>2012-12-01T14:48:31Z</time>
      </trkpt>
      <trkpt lat="50.84618" lon="1.8847">
        <ele>46.2806396</ele>
        <time>2012-12-01T14:48:41Z</time>
      </trkpt>
      <trkpt lat="50.84618" lon="1.88468">
        <ele>45.7999268</ele>
        <time>2012-12-01T14:48:45Z</time>
      </trkpt>
      <trkpt lat="50.84619" lon="1.88467">
        <ele>43.8773193</ele>
        <time>2012-12-01T14:48:58Z</time>
      </trkpt>
      <trkpt lat="50.84618" lon="1.88458">
        <ele>44.3580322</ele>
        <time>2012-12-01T14:49:06Z</time>
      </trkpt>
      <trkpt lat="50.8462" lon="1.8845">
        <ele>44.3580322</ele>
        <time>2012-12-01T14:49:10Z</time>
      </trkpt>
      <trkpt lat="50.84622" lon="1.88441">
        <ele>42.9160156</ele>
        <time>2012-12-01T14:49:15Z</time>
      </trkpt>
      <trkpt lat="50.84625" lon="1.88427">
        <ele>44.3580322</ele>
        <time>2012-12-01T14:49:23Z</time>
      </trkpt>
      <trkpt lat="50.84627" lon="1.8842">
        <ele>44.838623</ele>
        <time>2012-12-01T14:49:27Z</time>
      </trkpt>
      <trkpt lat="50.84627" lon="1.88418">
        <ele>44.3580322</ele>
        <time>2012-12-01T14:49:28Z</time>
      </trkpt>
      <trkpt lat="50.84629" lon="1.88412">
        <ele>44.838623</ele>
        <time>2012-12-01T14:49:33Z</time>
      </trkpt>
      <trkpt lat="50.84631" lon="1.88398">
        <ele>44.838623</ele>
        <time>2012-12-01T14:49:41Z</time>
      </trkpt>
      <trkpt lat="50.84633" lon="1.88387">
        <ele>46.2806396</ele>
        <time>2012-12-01T14:49:46Z</time>
      </trkpt>
      <trkpt lat="50.84637" lon="1.88374">
        <ele>45.7999268</ele>
        <time>2012-12-01T14:49:53Z</time>
      </trkpt>
      <trkpt lat="50.84637" lon="1.88373">
        <ele>45.3192139</ele>
        <time>2012-12-01T14:49:54Z</time>
      </trkpt>
      <trkpt lat="50.84638" lon="1.8837">
        <ele>46.2806396</ele>
        <time>2012-12-01T14:49:56Z</time>
      </trkpt>
      <trkpt lat="50.84639" lon="1.88361">
        <ele>47.7225342</ele>
        <time>2012-12-01T14:50:02Z</time>
      </trkpt>
      <trkpt lat="50.8464" lon="1.88351">
        <ele>46.7612305</ele>
        <time>2012-12-01T14:50:08Z</time>
      </trkpt>
      <trkpt lat="50.84639" lon="1.88342">
        <ele>47.2418213</ele>
        <time>2012-12-01T14:50:15Z</time>
      </trkpt>
      <trkpt lat="50.8464" lon="1.88341">
        <ele>47.2418213</ele>
        <time>2012-12-01T14:50:16Z</time>
      </trkpt>
      <trkpt lat="50.8464" lon="1.88328">
        <ele>44.838623</ele>
        <time>2012-12-01T14:50:22Z</time>
      </trkpt>
      <trkpt lat="50.8464" lon="1.88327">
        <ele>45.3192139</ele>
        <time>2012-12-01T14:50:27Z</time>
      </trkpt>
      <trkpt lat="50.84638" lon="1.88321">
        <ele>45.7999268</ele>
        <time>2012-12-01T14:50:31Z</time>
      </trkpt>
      <trkpt lat="50.84639" lon="1.88314">
        <ele>47.2418213</ele>
        <time>2012-12-01T14:50:37Z</time>
      </trkpt>
      <trkpt lat="50.84638" lon="1.88309">
        <ele>47.7225342</ele>
        <time>2012-12-01T14:50:43Z</time>
      </trkpt>
      <trkpt lat="50.84635" lon="1.88293">
        <ele>47.7225342</ele>
        <time>2012-12-01T14:50:49Z</time>
      </trkpt>
      <trkpt lat="50.84633" lon="1.88277">
        <ele>47.7225342</ele>
        <time>2012-12-01T14:50:59Z</time>
      </trkpt>
      <trkpt lat="50.84631" lon="1.8826">
        <ele>49.1645508</ele>
        <time>2012-12-01T14:51:08Z</time>
      </trkpt>
      <trkpt lat="50.84629" lon="1.88253">
        <ele>48.2033691</ele>
        <time>2012-12-01T14:51:13Z</time>
      </trkpt>
      <trkpt lat="50.84629" lon="1.8825">
        <ele>48.2033691</ele>
        <time>2012-12-01T14:51:14Z</time>
      </trkpt>
      <trkpt lat="50.84628" lon="1.88238">
        <ele>48.2033691</ele>
        <time>2012-12-01T14:51:20Z</time>
      </trkpt>
      <trkpt lat="50.84626" lon="1.88227">
        <ele>49.1645508</ele>
        <time>2012-12-01T14:51:27Z</time>
      </trkpt>
      <trkpt lat="50.84625" lon="1.88224">
        <ele>49.6452637</ele>
        <time>2012-12-01T14:51:29Z</time>
      </trkpt>
      <trkpt lat="50.84625" lon="1.88208">
        <ele>49.6452637</ele>
        <time>2012-12-01T14:51:37Z</time>
      </trkpt>
      <trkpt lat="50.84624" lon="1.88202">
        <ele>49.6452637</ele>
        <time>2012-12-01T14:51:40Z</time>
      </trkpt>
      <trkpt lat="50.84623" lon="1.88191">
        <ele>49.6452637</ele>
        <time>2012-12-01T14:51:46Z</time>
      </trkpt>
      <trkpt lat="50.84623" lon="1.88188">
        <ele>49.6452637</ele>
        <time>2012-12-01T14:51:48Z</time>
      </trkpt>
      <trkpt lat="50.84621" lon="1.88172">
        <ele>51.0871582</ele>
        <time>2012-12-01T14:51:56Z</time>
      </trkpt>
      <trkpt lat="50.84619" lon="1.88157">
        <ele>50.1259766</ele>
        <time>2012-12-01T14:52:05Z</time>
      </trkpt>
      <trkpt lat="50.84618" lon="1.88141">
        <ele>48.68396</ele>
        <time>2012-12-01T14:52:14Z</time>
      </trkpt>
      <trkpt lat="50.84616" lon="1.88127">
        <ele>49.6452637</ele>
        <time>2012-12-01T14:52:21Z</time>
      </trkpt>
      <trkpt lat="50.84615" lon="1.88122">
        <ele>50.1259766</ele>
        <time>2012-12-01T14:52:26Z</time>
      </trkpt>
      <trkpt lat="50.84612" lon="1.88106">
        <ele>50.1259766</ele>
        <time>2012-12-01T14:52:35Z</time>
      </trkpt>
      <trkpt lat="50.8461" lon="1.88092">
        <ele>49.6452637</ele>
        <time>2012-12-01T14:52:42Z</time>
      </trkpt>
      <trkpt lat="50.84607" lon="1.88074">
        <ele>49.6452637</ele>
        <time>2012-12-01T14:52:52Z</time>
      </trkpt>
      <trkpt lat="50.84606" lon="1.88064">
        <ele>49.6452637</ele>
        <time>2012-12-01T14:52:57Z</time>
      </trkpt>
      <trkpt lat="50.84606" lon="1.88061">
        <ele>49.6452637</ele>
        <time>2012-12-01T14:53:02Z</time>
      </trkpt>
      <trkpt lat="50.84603" lon="1.88044">
        <ele>49.1645508</ele>
        <time>2012-12-01T14:53:07Z</time>
      </trkpt>
      <trkpt lat="50.84602" lon="1.88021">
        <ele>49.1645508</ele>
        <time>2012-12-01T14:53:18Z</time>
      </trkpt>
      <trkpt lat="50.846" lon="1.88004">
        <ele>48.2033691</ele>
        <time>2012-12-01T14:53:26Z</time>
      </trkpt>
      <trkpt lat="50.846" lon="1.87989">
        <ele>45.7999268</ele>
        <time>2012-12-01T14:53:34Z</time>
      </trkpt>
      <trkpt lat="50.84599" lon="1.87967">
        <ele>42.9160156</ele>
        <time>2012-12-01T14:53:45Z</time>
      </trkpt>
      <trkpt lat="50.84597" lon="1.87945">
        <ele>43.3966064</ele>
        <time>2012-12-01T14:53:56Z</time>
      </trkpt>
      <trkpt lat="50.84595" lon="1.87927">
        <ele>43.3966064</ele>
        <time>2012-12-01T14:54:05Z</time>
      </trkpt>
      <trkpt lat="50.84593" lon="1.87904">
        <ele>42.9160156</ele>
        <time>2012-12-01T14:54:16Z</time>
      </trkpt>
      <trkpt lat="50.84593" lon="1.87883">
        <ele>42.4354248</ele>
        <time>2012-12-01T14:54:27Z</time>
      </trkpt>
      <trkpt lat="50.84591" lon="1.87862">
        <ele>42.9160156</ele>
        <time>2012-12-01T14:54:37Z</time>
      </trkpt>
      <trkpt lat="50.84591" lon="1.87841">
        <ele>41.473999</ele>
        <time>2012-12-01T14:54:48Z</time>
      </trkpt>
      <trkpt lat="50.8459" lon="1.87824">
        <ele>40.9934082</ele>
        <time>2012-12-01T14:54:57Z</time>
      </trkpt>
      <trkpt lat="50.84589" lon="1.87811">
        <ele>40.5128174</ele>
        <time>2012-12-01T14:55:05Z</time>
      </trkpt>
      <trkpt lat="50.84588" lon="1.87799">
        <ele>40.9934082</ele>
        <time>2012-12-01T14:55:13Z</time>
      </trkpt>
      <trkpt lat="50.84587" lon="1.87793">
        <ele>40.9934082</ele>
        <time>2012-12-01T14:55:16Z</time>
      </trkpt>
      <trkpt lat="50.84585" lon="1.8778">
        <ele>41.473999</ele>
        <time>2012-12-01T14:55:24Z</time>
      </trkpt>
      <trkpt lat="50.84584" lon="1.87769">
        <ele>40.9934082</ele>
        <time>2012-12-01T14:55:31Z</time>
      </trkpt>
      <trkpt lat="50.84584" lon="1.87766">
        <ele>40.5128174</ele>
        <time>2012-12-01T14:55:33Z</time>
      </trkpt>
      <trkpt lat="50.84584" lon="1.87753">
        <ele>39.0706787</ele>
        <time>2012-12-01T14:55:41Z</time>
      </trkpt>
      <trkpt lat="50.84583" lon="1.87736">
        <ele>38.5900879</ele>
        <time>2012-12-01T14:55:51Z</time>
      </trkpt>
      <trkpt lat="50.84583" lon="1.87725">
        <ele>39.0706787</ele>
        <time>2012-12-01T14:55:59Z</time>
      </trkpt>
      <trkpt lat="50.84581" lon="1.87712">
        <ele>41.473999</ele>
        <time>2012-12-01T14:56:06Z</time>
      </trkpt>
      <trkpt lat="50.84581" lon="1.87699">
        <ele>41.9547119</ele>
        <time>2012-12-01T14:56:14Z</time>
      </trkpt>
      <trkpt lat="50.8458" lon="1.87684">
        <ele>42.9160156</ele>
        <time>2012-12-01T14:56:22Z</time>
      </trkpt>
      <trkpt lat="50.84579" lon="1.87672">
        <ele>43.3966064</ele>
        <time>2012-12-01T14:56:29Z</time>
      </trkpt>
      <trkpt lat="50.84578" lon="1.87661">
        <ele>43.3966064</ele>
        <time>2012-12-01T14:56:36Z</time>
      </trkpt>
      <trkpt lat="50.84579" lon="1.8765">
        <ele>42.9160156</ele>
        <time>2012-12-01T14:56:42Z</time>
      </trkpt>
      <trkpt lat="50.84579" lon="1.87637">
        <ele>43.3966064</ele>
        <time>2012-12-01T14:56:49Z</time>
      </trkpt>
      <trkpt lat="50.8458" lon="1.87621">
        <ele>44.3580322</ele>
        <time>2012-12-01T14:56:57Z</time>
      </trkpt>
      <trkpt lat="50.84583" lon="1.87605">
        <ele>46.2806396</ele>
        <time>2012-12-01T14:57:06Z</time>
      </trkpt>
      <trkpt lat="50.84586" lon="1.87597">
        <ele>47.2418213</ele>
        <time>2012-12-01T14:57:11Z</time>
      </trkpt>
      <trkpt lat="50.84589" lon="1.8759">
        <ele>47.7225342</ele>
        <time>2012-12-01T14:57:16Z</time>
      </trkpt>
      <trkpt lat="50.8459" lon="1.87588">
        <ele>48.2033691</ele>
        <time>2012-12-01T14:57:17Z</time>
      </trkpt>
      <trkpt lat="50.84596" lon="1.87575">
        <ele>49.6452637</ele>
        <time>2012-12-01T14:57:26Z</time>
      </trkpt>
      <trkpt lat="50.84598" lon="1.8757">
        <ele>49.1645508</ele>
        <time>2012-12-01T14:57:29Z</time>
      </trkpt>
      <trkpt lat="50.84602" lon="1.87557">
        <ele>50.1259766</ele>
        <time>2012-12-01T14:57:36Z</time>
      </trkpt>
      <trkpt lat="50.84606" lon="1.87539">
        <ele>49.6452637</ele>
        <time>2012-12-01T14:57:45Z</time>
      </trkpt>
      <trkpt lat="50.84609" lon="1.87527">
        <ele>47.7225342</ele>
        <time>2012-12-01T14:57:52Z</time>
      </trkpt>
      <trkpt lat="50.84611" lon="1.8752">
        <ele>46.2806396</ele>
        <time>2012-12-01T14:57:56Z</time>
      </trkpt>
      <trkpt lat="50.84611" lon="1.87517">
        <ele>46.2806396</ele>
        <time>2012-12-01T14:57:58Z</time>
      </trkpt>
      <trkpt lat="50.84614" lon="1.87507">
        <ele>47.7225342</ele>
        <time>2012-12-01T14:58:05Z</time>
      </trkpt>
      <trkpt lat="50.84618" lon="1.87496">
        <ele>49.1645508</ele>
        <time>2012-12-01T14:58:12Z</time>
      </trkpt>
      <trkpt lat="50.84621" lon="1.87487">
        <ele>50.6065674</ele>
        <time>2012-12-01T14:58:18Z</time>
      </trkpt>
      <trkpt lat="50.84622" lon="1.87476">
        <ele>50.6065674</ele>
        <time>2012-12-01T14:58:24Z</time>
      </trkpt>
      <trkpt lat="50.84624" lon="1.87469">
        <ele>50.1259766</ele>
        <time>2012-12-01T14:58:28Z</time>
      </trkpt>
      <trkpt lat="50.84627" lon="1.87458">
        <ele>51.5678711</ele>
        <time>2012-12-01T14:58:34Z</time>
      </trkpt>
      <trkpt lat="50.8463" lon="1.87447">
        <ele>53.9711914</ele>
        <time>2012-12-01T14:58:40Z</time>
      </trkpt>
      <trkpt lat="50.84634" lon="1.87437">
        <ele>54.4517822</ele>
        <time>2012-12-01T14:58:46Z</time>
      </trkpt>
      <trkpt lat="50.84636" lon="1.87427">
        <ele>53.9711914</ele>
        <time>2012-12-01T14:58:52Z</time>
      </trkpt>
      <trkpt lat="50.84638" lon="1.8742">
        <ele>53.0097656</ele>
        <time>2012-12-01T14:58:56Z</time>
      </trkpt>
      <trkpt lat="50.84643" lon="1.87408">
        <ele>52.048584</ele>
        <time>2012-12-01T14:59:02Z</time>
      </trkpt>
      <trkpt lat="50.84645" lon="1.87406">
        <ele>51.0871582</ele>
        <time>2012-12-01T14:59:04Z</time>
      </trkpt>
      <trkpt lat="50.84648" lon="1.87397">
        <ele>52.048584</ele>
        <time>2012-12-01T14:59:09Z</time>
      </trkpt>
      <trkpt lat="50.8465" lon="1.8739">
        <ele>51.5678711</ele>
        <time>2012-12-01T14:59:14Z</time>
      </trkpt>
      <trkpt lat="50.84651" lon="1.87386">
        <ele>50.6065674</ele>
        <time>2012-12-01T14:59:16Z</time>
      </trkpt>
      <trkpt lat="50.84653" lon="1.87381">
        <ele>48.2033691</ele>
        <time>2012-12-01T14:59:20Z</time>
      </trkpt>
      <trkpt lat="50.84657" lon="1.87366">
        <ele>47.2418213</ele>
        <time>2012-12-01T14:59:27Z</time>
      </trkpt>
      <trkpt lat="50.84662" lon="1.87347">
        <ele>47.7225342</ele>
        <time>2012-12-01T14:59:35Z</time>
      </trkpt>
      <trkpt lat="50.84663" lon="1.87345">
        <ele>48.2033691</ele>
        <time>2012-12-01T14:59:36Z</time>
      </trkpt>
      <trkpt lat="50.84666" lon="1.87333">
        <ele>50.1259766</ele>
        <time>2012-12-01T14:59:43Z</time>
      </trkpt>
      <trkpt lat="50.84667" lon="1.87331">
        <ele>50.6065674</ele>
        <time>2012-12-01T14:59:44Z</time>
      </trkpt>
      <trkpt lat="50.8467" lon="1.87316">
        <ele>51.0871582</ele>
        <time>2012-12-01T14:59:52Z</time>
      </trkpt>
      <trkpt lat="50.84676" lon="1.87301">
        <ele>52.5291748</ele>
        <time>2012-12-01T15:00:01Z</time>
      </trkpt>
      <trkpt lat="50.84682" lon="1.87283">
        <ele>54.932373</ele>
        <time>2012-12-01T15:00:11Z</time>
      </trkpt>
      <trkpt lat="50.84688" lon="1.87272">
        <ele>57.3358154</ele>
        <time>2012-12-01T15:00:18Z</time>
      </trkpt>
      <trkpt lat="50.84695" lon="1.87273">
        <ele>57.8165283</ele>
        <time>2012-12-01T15:00:24Z</time>
      </trkpt>
      <trkpt lat="50.84704" lon="1.87281">
        <ele>56.8551025</ele>
        <time>2012-12-01T15:00:33Z</time>
      </trkpt>
      <trkpt lat="50.84711" lon="1.87286">
        <ele>56.8551025</ele>
        <time>2012-12-01T15:00:40Z</time>
      </trkpt>
      <trkpt lat="50.84713" lon="1.87289">
        <ele>58.77771</ele>
        <time>2012-12-01T15:00:48Z</time>
      </trkpt>
      <trkpt lat="50.84718" lon="1.87293">
        <ele>58.2971191</ele>
        <time>2012-12-01T15:00:53Z</time>
      </trkpt>
      <trkpt lat="50.84726" lon="1.87299">
        <ele>56.8551025</ele>
        <time>2012-12-01T15:01:00Z</time>
      </trkpt>
      <trkpt lat="50.84733" lon="1.87304">
        <ele>55.8937988</ele>
        <time>2012-12-01T15:01:08Z</time>
      </trkpt>
      <trkpt lat="50.84742" lon="1.87312">
        <ele>56.3745117</ele>
        <time>2012-12-01T15:01:16Z</time>
      </trkpt>
      <trkpt lat="50.84749" lon="1.87319">
        <ele>56.3745117</ele>
        <time>2012-12-01T15:01:22Z</time>
      </trkpt>
      <trkpt lat="50.84753" lon="1.87322">
        <ele>55.8937988</ele>
        <time>2012-12-01T15:01:26Z</time>
      </trkpt>
      <trkpt lat="50.84762" lon="1.8733">
        <ele>54.4517822</ele>
        <time>2012-12-01T15:01:34Z</time>
      </trkpt>
      <trkpt lat="50.84772" lon="1.87339">
        <ele>51.5678711</ele>
        <time>2012-12-01T15:01:44Z</time>
      </trkpt>
      <trkpt lat="50.8478" lon="1.87347">
        <ele>52.5291748</ele>
        <time>2012-12-01T15:01:53Z</time>
      </trkpt>
      <trkpt lat="50.84789" lon="1.87355">
        <ele>52.048584</ele>
        <time>2012-12-01T15:02:01Z</time>
      </trkpt>
      <trkpt lat="50.84797" lon="1.87363">
        <ele>52.5291748</ele>
        <time>2012-12-01T15:02:08Z</time>
      </trkpt>
      <trkpt lat="50.84809" lon="1.87372">
        <ele>50.6065674</ele>
        <time>2012-12-01T15:02:17Z</time>
      </trkpt>
      <trkpt lat="50.84818" lon="1.8738">
        <ele>51.5678711</ele>
        <time>2012-12-01T15:02:26Z</time>
      </trkpt>
      <trkpt lat="50.84824" lon="1.87384">
        <ele>51.5678711</ele>
        <time>2012-12-01T15:02:31Z</time>
      </trkpt>
      <trkpt lat="50.84836" lon="1.87394">
        <ele>53.0097656</ele>
        <time>2012-12-01T15:02:40Z</time>
      </trkpt>
      <trkpt lat="50.84842" lon="1.87399">
        <ele>52.048584</ele>
        <time>2012-12-01T15:02:46Z</time>
      </trkpt>
      <trkpt lat="50.84849" lon="1.87407">
        <ele>52.5291748</ele>
        <time>2012-12-01T15:02:54Z</time>
      </trkpt>
      <trkpt lat="50.84856" lon="1.87415">
        <ele>51.5678711</ele>
        <time>2012-12-01T15:03:02Z</time>
      </trkpt>
      <trkpt lat="50.84862" lon="1.8742">
        <ele>52.5291748</ele>
        <time>2012-12-01T15:03:09Z</time>
      </trkpt>
      <trkpt lat="50.84869" lon="1.87426">
        <ele>52.048584</ele>
        <time>2012-12-01T15:03:16Z</time>
      </trkpt>
      <trkpt lat="50.84877" lon="1.87432">
        <ele>51.0871582</ele>
        <time>2012-12-01T15:03:24Z</time>
      </trkpt>
      <trkpt lat="50.84881" lon="1.87437">
        <ele>51.0871582</ele>
        <time>2012-12-01T15:03:28Z</time>
      </trkpt>
      <trkpt lat="50.84889" lon="1.87444">
        <ele>49.6452637</ele>
        <time>2012-12-01T15:03:36Z</time>
      </trkpt>
      <trkpt lat="50.84893" lon="1.8745">
        <ele>48.68396</ele>
        <time>2012-12-01T15:03:42Z</time>
      </trkpt>
      <trkpt lat="50.84898" lon="1.87455">
        <ele>47.7225342</ele>
        <time>2012-12-01T15:03:48Z</time>
      </trkpt>
      <trkpt lat="50.84906" lon="1.8746">
        <ele>45.3192139</ele>
        <time>2012-12-01T15:03:55Z</time>
      </trkpt>
      <trkpt lat="50.84914" lon="1.87465">
        <ele>44.3580322</ele>
        <time>2012-12-01T15:04:01Z</time>
      </trkpt>
      <trkpt lat="50.84918" lon="1.87468">
        <ele>45.7999268</ele>
        <time>2012-12-01T15:04:04Z</time>
      </trkpt>
      <trkpt lat="50.84929" lon="1.87478">
        <ele>47.2418213</ele>
        <time>2012-12-01T15:04:13Z</time>
      </trkpt>
      <trkpt lat="50.84936" lon="1.87484">
        <ele>47.2418213</ele>
        <time>2012-12-01T15:04:17Z</time>
      </trkpt>
      <trkpt lat="50.84945" lon="1.87491">
        <ele>48.2033691</ele>
        <time>2012-12-01T15:04:22Z</time>
      </trkpt>
      <trkpt lat="50.84955" lon="1.87498">
        <ele>47.2418213</ele>
        <time>2012-12-01T15:04:29Z</time>
      </trkpt>
      <trkpt lat="50.84964" lon="1.87505">
        <ele>45.3192139</ele>
        <time>2012-12-01T15:04:36Z</time>
      </trkpt>
      <trkpt lat="50.84973" lon="1.87514">
        <ele>44.3580322</ele>
        <time>2012-12-01T15:04:43Z</time>
      </trkpt>
      <trkpt lat="50.84981" lon="1.87522">
        <ele>45.7999268</ele>
        <time>2012-12-01T15:04:49Z</time>
      </trkpt>
      <trkpt lat="50.84991" lon="1.8753">
        <ele>45.7999268</ele>
        <time>2012-12-01T15:04:56Z</time>
      </trkpt>
      <trkpt lat="50.84993" lon="1.87532">
        <ele>49.1645508</ele>
        <time>2012-12-01T15:05:02Z</time>
      </trkpt>
      <trkpt lat="50.84993" lon="1.87538">
        <ele>52.5291748</ele>
        <time>2012-12-01T15:05:07Z</time>
      </trkpt>
      <trkpt lat="50.85005" lon="1.87544">
        <ele>53.0097656</ele>
        <time>2012-12-01T15:05:15Z</time>
      </trkpt>
      <trkpt lat="50.85012" lon="1.8755">
        <ele>52.5291748</ele>
        <time>2012-12-01T15:05:21Z</time>
      </trkpt>
      <trkpt lat="50.85014" lon="1.87551">
        <ele>52.048584</ele>
        <time>2012-12-01T15:05:22Z</time>
      </trkpt>
      <trkpt lat="50.85023" lon="1.87557">
        <ele>51.5678711</ele>
        <time>2012-12-01T15:05:29Z</time>
      </trkpt>
      <trkpt lat="50.85031" lon="1.87566">
        <ele>50.6065674</ele>
        <time>2012-12-01T15:05:37Z</time>
      </trkpt>
      <trkpt lat="50.85038" lon="1.87572">
        <ele>50.1259766</ele>
        <time>2012-12-01T15:05:43Z</time>
      </trkpt>
      <trkpt lat="50.85041" lon="1.87576">
        <ele>49.1645508</ele>
        <time>2012-12-01T15:05:46Z</time>
      </trkpt>
      <trkpt lat="50.85046" lon="1.8758">
        <ele>48.2033691</ele>
        <time>2012-12-01T15:05:50Z</time>
      </trkpt>
      <trkpt lat="50.85058" lon="1.87588">
        <ele>47.2418213</ele>
        <time>2012-12-01T15:06:00Z</time>
      </trkpt>
      <trkpt lat="50.8506" lon="1.87589">
        <ele>46.7612305</ele>
        <time>2012-12-01T15:06:02Z</time>
      </trkpt>
      <trkpt lat="50.85068" lon="1.87598">
        <ele>46.7612305</ele>
        <time>2012-12-01T15:06:09Z</time>
      </trkpt>
      <trkpt lat="50.85074" lon="1.87604">
        <ele>47.2418213</ele>
        <time>2012-12-01T15:06:14Z</time>
      </trkpt>
      <trkpt lat="50.85077" lon="1.87607">
        <ele>47.7225342</ele>
        <time>2012-12-01T15:06:17Z</time>
      </trkpt>
      <trkpt lat="50.8509" lon="1.87617">
        <ele>46.7612305</ele>
        <time>2012-12-01T15:06:27Z</time>
      </trkpt>
      <trkpt lat="50.85097" lon="1.87623">
        <ele>46.7612305</ele>
        <time>2012-12-01T15:06:33Z</time>
      </trkpt>
      <trkpt lat="50.85106" lon="1.87631">
        <ele>46.7612305</ele>
        <time>2012-12-01T15:06:40Z</time>
      </trkpt>
      <trkpt lat="50.85114" lon="1.87637">
        <ele>46.2806396</ele>
        <time>2012-12-01T15:06:46Z</time>
      </trkpt>
      <trkpt lat="50.85125" lon="1.87646">
        <ele>46.2806396</ele>
        <time>2012-12-01T15:06:55Z</time>
      </trkpt>
      <trkpt lat="50.85133" lon="1.87655">
        <ele>47.2418213</ele>
        <time>2012-12-01T15:07:02Z</time>
      </trkpt>
      <trkpt lat="50.85142" lon="1.87664">
        <ele>49.1645508</ele>
        <time>2012-12-01T15:07:09Z</time>
      </trkpt>
      <trkpt lat="50.85151" lon="1.87671">
        <ele>48.68396</ele>
        <time>2012-12-01T15:07:16Z</time>
      </trkpt>
      <trkpt lat="50.85159" lon="1.87678">
        <ele>50.6065674</ele>
        <time>2012-12-01T15:07:22Z</time>
      </trkpt>
      <trkpt lat="50.85164" lon="1.87682">
        <ele>51.5678711</ele>
        <time>2012-12-01T15:07:26Z</time>
      </trkpt>
      <trkpt lat="50.85168" lon="1.87685">
        <ele>51.0871582</ele>
        <time>2012-12-01T15:07:30Z</time>
      </trkpt>
      <trkpt lat="50.85177" lon="1.87691">
        <ele>47.7225342</ele>
        <time>2012-12-01T15:07:36Z</time>
      </trkpt>
      <trkpt lat="50.85188" lon="1.87701">
        <ele>46.7612305</ele>
        <time>2012-12-01T15:07:44Z</time>
      </trkpt>
      <trkpt lat="50.85195" lon="1.87708">
        <ele>44.838623</ele>
        <time>2012-12-01T15:07:51Z</time>
      </trkpt>
      <trkpt lat="50.85204" lon="1.87716">
        <ele>43.8773193</ele>
        <time>2012-12-01T15:07:59Z</time>
      </trkpt>
      <trkpt lat="50.85214" lon="1.87725">
        <ele>43.3966064</ele>
        <time>2012-12-01T15:08:07Z</time>
      </trkpt>
      <trkpt lat="50.85222" lon="1.87731">
        <ele>41.473999</ele>
        <time>2012-12-01T15:08:14Z</time>
      </trkpt>
      <trkpt lat="50.85232" lon="1.87739">
        <ele>40.9934082</ele>
        <time>2012-12-01T15:08:22Z</time>
      </trkpt>
      <trkpt lat="50.85243" lon="1.87749">
        <ele>41.9547119</ele>
        <time>2012-12-01T15:08:31Z</time>
      </trkpt>
      <trkpt lat="50.8525" lon="1.87754">
        <ele>40.9934082</ele>
        <time>2012-12-01T15:08:37Z</time>
      </trkpt>
      <trkpt lat="50.85256" lon="1.87759">
        <ele>39.5512695</ele>
        <time>2012-12-01T15:08:43Z</time>
      </trkpt>
      <trkpt lat="50.85264" lon="1.87767">
        <ele>40.0321045</ele>
        <time>2012-12-01T15:08:50Z</time>
      </trkpt>
      <trkpt lat="50.85269" lon="1.87771">
        <ele>40.0321045</ele>
        <time>2012-12-01T15:08:55Z</time>
      </trkpt>
      <trkpt lat="50.85277" lon="1.87779">
        <ele>39.0706787</ele>
        <time>2012-12-01T15:09:03Z</time>
      </trkpt>
      <trkpt lat="50.85282" lon="1.87783">
        <ele>37.1480713</ele>
        <time>2012-12-01T15:09:07Z</time>
      </trkpt>
      <trkpt lat="50.85291" lon="1.8779">
        <ele>37.6286621</ele>
        <time>2012-12-01T15:09:14Z</time>
      </trkpt>
      <trkpt lat="50.85298" lon="1.87796">
        <ele>38.109375</ele>
        <time>2012-12-01T15:09:20Z</time>
      </trkpt>
      <trkpt lat="50.85308" lon="1.87805">
        <ele>39.0706787</ele>
        <time>2012-12-01T15:09:29Z</time>
      </trkpt>
      <trkpt lat="50.85317" lon="1.87814">
        <ele>40.0321045</ele>
        <time>2012-12-01T15:09:38Z</time>
      </trkpt>
      <trkpt lat="50.85324" lon="1.8782">
        <ele>40.0321045</ele>
        <time>2012-12-01T15:09:44Z</time>
      </trkpt>
      <trkpt lat="50.8533" lon="1.87823">
        <ele>37.6286621</ele>
        <time>2012-12-01T15:09:49Z</time>
      </trkpt>
      <trkpt lat="50.85339" lon="1.87833">
        <ele>37.1480713</ele>
        <time>2012-12-01T15:09:57Z</time>
      </trkpt>
      <trkpt lat="50.85349" lon="1.87842">
        <ele>36.6674805</ele>
        <time>2012-12-01T15:10:06Z</time>
      </trkpt>
      <trkpt lat="50.8536" lon="1.87852">
        <ele>36.6674805</ele>
        <time>2012-12-01T15:10:16Z</time>
      </trkpt>
      <trkpt lat="50.8537" lon="1.87858">
        <ele>37.1480713</ele>
        <time>2012-12-01T15:10:24Z</time>
      </trkpt>
      <trkpt lat="50.85381" lon="1.87867">
        <ele>37.1480713</ele>
        <time>2012-12-01T15:10:33Z</time>
      </trkpt>
      <trkpt lat="50.85392" lon="1.87876">
        <ele>38.109375</ele>
        <time>2012-12-01T15:10:43Z</time>
      </trkpt>
      <trkpt lat="50.85399" lon="1.87883">
        <ele>37.6286621</ele>
        <time>2012-12-01T15:10:50Z</time>
      </trkpt>
      <trkpt lat="50.85403" lon="1.87889">
        <ele>36.1867676</ele>
        <time>2012-12-01T15:10:55Z</time>
      </trkpt>
      <trkpt lat="50.8541" lon="1.87893">
        <ele>36.1867676</ele>
        <time>2012-12-01T15:11:00Z</time>
      </trkpt>
      <trkpt lat="50.85419" lon="1.87901">
        <ele>35.7060547</ele>
        <time>2012-12-01T15:11:08Z</time>
      </trkpt>
      <trkpt lat="50.85426" lon="1.87906">
        <ele>35.7060547</ele>
        <time>2012-12-01T15:11:14Z</time>
      </trkpt>
      <trkpt lat="50.85435" lon="1.87913">
        <ele>35.2254639</ele>
        <time>2012-12-01T15:11:21Z</time>
      </trkpt>
      <trkpt lat="50.85444" lon="1.87921">
        <ele>35.7060547</ele>
        <time>2012-12-01T15:11:29Z</time>
      </trkpt>
      <trkpt lat="50.85452" lon="1.8793">
        <ele>35.7060547</ele>
        <time>2012-12-01T15:11:37Z</time>
      </trkpt>
      <trkpt lat="50.85461" lon="1.87938">
        <ele>35.2254639</ele>
        <time>2012-12-01T15:11:45Z</time>
      </trkpt>
      <trkpt lat="50.85468" lon="1.87943">
        <ele>34.744873</ele>
        <time>2012-12-01T15:11:51Z</time>
      </trkpt>
      <trkpt lat="50.85476" lon="1.8795">
        <ele>34.744873</ele>
        <time>2012-12-01T15:11:57Z</time>
      </trkpt>
      <trkpt lat="50.85487" lon="1.87958">
        <ele>33.7834473</ele>
        <time>2012-12-01T15:12:06Z</time>
      </trkpt>
      <trkpt lat="50.85494" lon="1.87965">
        <ele>33.7834473</ele>
        <time>2012-12-01T15:12:13Z</time>
      </trkpt>
      <trkpt lat="50.855" lon="1.87972">
        <ele>34.2641602</ele>
        <time>2012-12-01T15:12:19Z</time>
      </trkpt>
      <trkpt lat="50.85503" lon="1.87976">
        <ele>34.744873</ele>
        <time>2012-12-01T15:12:23Z</time>
      </trkpt>
      <trkpt lat="50.85505" lon="1.87978">
        <ele>34.2641602</ele>
        <time>2012-12-01T15:12:26Z</time>
      </trkpt>
      <trkpt lat="50.85514" lon="1.87982">
        <ele>33.7834473</ele>
        <time>2012-12-01T15:12:32Z</time>
      </trkpt>
      <trkpt lat="50.85521" lon="1.8799">
        <ele>33.3028564</ele>
        <time>2012-12-01T15:12:39Z</time>
      </trkpt>
      <trkpt lat="50.85531" lon="1.87998">
        <ele>33.3028564</ele>
        <time>2012-12-01T15:12:48Z</time>
      </trkpt>
      <trkpt lat="50.85538" lon="1.88004">
        <ele>33.7834473</ele>
        <time>2012-12-01T15:12:54Z</time>
      </trkpt>
      <trkpt lat="50.85546" lon="1.88011">
        <ele>33.7834473</ele>
        <time>2012-12-01T15:12:59Z</time>
      </trkpt>
      <trkpt lat="50.85553" lon="1.88016">
        <ele>34.744873</ele>
        <time>2012-12-01T15:13:04Z</time>
      </trkpt>
      <trkpt lat="50.85561" lon="1.8802">
        <ele>33.7834473</ele>
        <time>2012-12-01T15:13:10Z</time>
      </trkpt>
      <trkpt lat="50.85571" lon="1.8803">
        <ele>32.8222656</ele>
        <time>2012-12-01T15:13:19Z</time>
      </trkpt>
      <trkpt lat="50.85579" lon="1.88038">
        <ele>32.3415527</ele>
        <time>2012-12-01T15:13:27Z</time>
      </trkpt>
      <trkpt lat="50.8559" lon="1.88048">
        <ele>31.380127</ele>
        <time>2012-12-01T15:13:36Z</time>
      </trkpt>
      <trkpt lat="50.85597" lon="1.88055">
        <ele>31.380127</ele>
        <time>2012-12-01T15:13:42Z</time>
      </trkpt>
      <trkpt lat="50.85607" lon="1.88064">
        <ele>30.8995361</ele>
        <time>2012-12-01T15:13:50Z</time>
      </trkpt>
      <trkpt lat="50.85618" lon="1.88073">
        <ele>29.4575195</ele>
        <time>2012-12-01T15:14:00Z</time>
      </trkpt>
      <trkpt lat="50.85626" lon="1.88081">
        <ele>28.4962158</ele>
        <time>2012-12-01T15:14:08Z</time>
      </trkpt>
      <trkpt lat="50.85634" lon="1.88087">
        <ele>28.0155029</ele>
        <time>2012-12-01T15:14:15Z</time>
      </trkpt>
      <trkpt lat="50.85642" lon="1.88093">
        <ele>28.0155029</ele>
        <time>2012-12-01T15:14:21Z</time>
      </trkpt>
      <trkpt lat="50.8565" lon="1.881">
        <ele>27.0543213</ele>
        <time>2012-12-01T15:14:28Z</time>
      </trkpt>
      <trkpt lat="50.85657" lon="1.88107">
        <ele>26.5736084</ele>
        <time>2012-12-01T15:14:35Z</time>
      </trkpt>
      <trkpt lat="50.85662" lon="1.88111">
        <ele>25.1317139</ele>
        <time>2012-12-01T15:14:40Z</time>
      </trkpt>
      <trkpt lat="50.85671" lon="1.88118">
        <ele>24.1702881</ele>
        <time>2012-12-01T15:14:47Z</time>
      </trkpt>
      <trkpt lat="50.85681" lon="1.88127">
        <ele>23.2089844</ele>
        <time>2012-12-01T15:14:55Z</time>
      </trkpt>
      <trkpt lat="50.85694" lon="1.88138">
        <ele>25.6123047</ele>
        <time>2012-12-01T15:15:07Z</time>
      </trkpt>
      <trkpt lat="50.85703" lon="1.88145">
        <ele>24.1702881</ele>
        <time>2012-12-01T15:15:14Z</time>
      </trkpt>
      <trkpt lat="50.85713" lon="1.88153">
        <ele>22.7282715</ele>
        <time>2012-12-01T15:15:22Z</time>
      </trkpt>
      <trkpt lat="50.85721" lon="1.88161">
        <ele>21.7669678</ele>
        <time>2012-12-01T15:15:29Z</time>
      </trkpt>
      <trkpt lat="50.8573" lon="1.88169">
        <ele>21.7669678</ele>
        <time>2012-12-01T15:15:36Z</time>
      </trkpt>
      <trkpt lat="50.85736" lon="1.88175">
        <ele>21.7669678</ele>
        <time>2012-12-01T15:15:41Z</time>
      </trkpt>
      <trkpt lat="50.85745" lon="1.8818">
        <ele>22.7282715</ele>
        <time>2012-12-01T15:15:48Z</time>
      </trkpt>
      <trkpt lat="50.85756" lon="1.88178">
        <ele>21.286377</ele>
        <time>2012-12-01T15:15:57Z</time>
      </trkpt>
      <trkpt lat="50.85766" lon="1.88175">
        <ele>20.3249512</ele>
        <time>2012-12-01T15:16:05Z</time>
      </trkpt>
      <trkpt lat="50.85776" lon="1.88172">
        <ele>19.8443604</ele>
        <time>2012-12-01T15:16:13Z</time>
      </trkpt>
      <trkpt lat="50.85784" lon="1.88169">
        <ele>19.8443604</ele>
        <time>2012-12-01T15:16:19Z</time>
      </trkpt>
      <trkpt lat="50.8579" lon="1.88166">
        <ele>20.3249512</ele>
        <time>2012-12-01T15:16:24Z</time>
      </trkpt>
      <trkpt lat="50.85801" lon="1.88162">
        <ele>22.2475586</ele>
        <time>2012-12-01T15:16:32Z</time>
      </trkpt>
      <trkpt lat="50.85812" lon="1.88158">
        <ele>22.2475586</ele>
        <time>2012-12-01T15:16:41Z</time>
      </trkpt>
      <trkpt lat="50.85824" lon="1.88154">
        <ele>21.7669678</ele>
        <time>2012-12-01T15:16:50Z</time>
      </trkpt>
      <trkpt lat="50.85834" lon="1.8815">
        <ele>22.7282715</ele>
        <time>2012-12-01T15:16:58Z</time>
      </trkpt>
      <trkpt lat="50.85845" lon="1.88143">
        <ele>22.2475586</ele>
        <time>2012-12-01T15:17:07Z</time>
      </trkpt>
      <trkpt lat="50.85856" lon="1.88139">
        <ele>22.7282715</ele>
        <time>2012-12-01T15:17:15Z</time>
      </trkpt>
      <trkpt lat="50.85866" lon="1.88135">
        <ele>21.7669678</ele>
        <time>2012-12-01T15:17:23Z</time>
      </trkpt>
      <trkpt lat="50.85878" lon="1.88131">
        <ele>21.7669678</ele>
        <time>2012-12-01T15:17:32Z</time>
      </trkpt>
      <trkpt lat="50.85891" lon="1.88126">
        <ele>21.7669678</ele>
        <time>2012-12-01T15:17:42Z</time>
      </trkpt>
      <trkpt lat="50.85902" lon="1.88121">
        <ele>21.7669678</ele>
        <time>2012-12-01T15:17:51Z</time>
      </trkpt>
      <trkpt lat="50.85912" lon="1.88117">
        <ele>22.2475586</ele>
        <time>2012-12-01T15:17:59Z</time>
      </trkpt>
      <trkpt lat="50.8592" lon="1.88113">
        <ele>21.286377</ele>
        <time>2012-12-01T15:18:06Z</time>
      </trkpt>
      <trkpt lat="50.85935" lon="1.88108">
        <ele>20.8056641</ele>
        <time>2012-12-01T15:18:17Z</time>
      </trkpt>
      <trkpt lat="50.85945" lon="1.88105">
        <ele>21.286377</ele>
        <time>2012-12-01T15:18:25Z</time>
      </trkpt>
      <trkpt lat="50.8596" lon="1.881">
        <ele>21.7669678</ele>
        <time>2012-12-01T15:18:37Z</time>
      </trkpt>
      <trkpt lat="50.85971" lon="1.88096">
        <ele>21.286377</ele>
        <time>2012-12-01T15:18:46Z</time>
      </trkpt>
      <trkpt lat="50.85978" lon="1.88093">
        <ele>21.286377</ele>
        <time>2012-12-01T15:18:53Z</time>
      </trkpt>
      <trkpt lat="50.85986" lon="1.8809">
        <ele>21.7669678</ele>
        <time>2012-12-01T15:19:00Z</time>
      </trkpt>
      <trkpt lat="50.85988" lon="1.8809">
        <ele>21.7669678</ele>
        <time>2012-12-01T15:19:01Z</time>
      </trkpt>
      <trkpt lat="50.85997" lon="1.88086">
        <ele>21.7669678</ele>
        <time>2012-12-01T15:19:08Z</time>
      </trkpt>
      <trkpt lat="50.86007" lon="1.88081">
        <ele>22.2475586</ele>
        <time>2012-12-01T15:19:16Z</time>
      </trkpt>
      <trkpt lat="50.86015" lon="1.88078">
        <ele>22.2475586</ele>
        <time>2012-12-01T15:19:23Z</time>
      </trkpt>
      <trkpt lat="50.86018" lon="1.88078">
        <ele>22.7282715</ele>
        <time>2012-12-01T15:19:25Z</time>
      </trkpt>
      <trkpt lat="50.86021" lon="1.88076">
        <ele>23.2089844</ele>
        <time>2012-12-01T15:19:29Z</time>
      </trkpt>
      <trkpt lat="50.8603" lon="1.88074">
        <ele>22.7282715</ele>
        <time>2012-12-01T15:19:36Z</time>
      </trkpt>
      <trkpt lat="50.86036" lon="1.88073">
        <ele>21.7669678</ele>
        <time>2012-12-01T15:19:41Z</time>
      </trkpt>
      <trkpt lat="50.86046" lon="1.88071">
        <ele>21.286377</ele>
        <time>2012-12-01T15:19:49Z</time>
      </trkpt>
      <trkpt lat="50.86057" lon="1.88069">
        <ele>20.8056641</ele>
        <time>2012-12-01T15:19:58Z</time>
      </trkpt>
      <trkpt lat="50.86068" lon="1.88067">
        <ele>21.286377</ele>
        <time>2012-12-01T15:20:07Z</time>
      </trkpt>
      <trkpt lat="50.86076" lon="1.88067">
        <ele>20.8056641</ele>
        <time>2012-12-01T15:20:14Z</time>
      </trkpt>
      <trkpt lat="50.86083" lon="1.88066">
        <ele>22.2475586</ele>
        <time>2012-12-01T15:20:20Z</time>
      </trkpt>
      <trkpt lat="50.86091" lon="1.88064">
        <ele>23.2089844</ele>
        <time>2012-12-01T15:20:27Z</time>
      </trkpt>
      <trkpt lat="50.86103" lon="1.88062">
        <ele>22.2475586</ele>
        <time>2012-12-01T15:20:35Z</time>
      </trkpt>
      <trkpt lat="50.86108" lon="1.88062">
        <ele>21.7669678</ele>
        <time>2012-12-01T15:20:38Z</time>
      </trkpt>
      <trkpt lat="50.86113" lon="1.8806">
        <ele>20.8056641</ele>
        <time>2012-12-01T15:20:42Z</time>
      </trkpt>
      <trkpt lat="50.86123" lon="1.88057">
        <ele>18.4023438</ele>
        <time>2012-12-01T15:20:50Z</time>
      </trkpt>
      <trkpt lat="50.86129" lon="1.88056">
        <ele>17.9217529</ele>
        <time>2012-12-01T15:20:55Z</time>
      </trkpt>
      <trkpt lat="50.8614" lon="1.88052">
        <ele>17.4411621</ele>
        <time>2012-12-01T15:21:01Z</time>
      </trkpt>
      <trkpt lat="50.86142" lon="1.88052">
        <ele>16.9604492</ele>
        <time>2012-12-01T15:21:02Z</time>
      </trkpt>
      <trkpt lat="50.86157" lon="1.88048">
        <ele>17.4411621</ele>
        <time>2012-12-01T15:21:09Z</time>
      </trkpt>
      <trkpt lat="50.86164" lon="1.88047">
        <ele>17.4411621</ele>
        <time>2012-12-01T15:21:15Z</time>
      </trkpt>
      <trkpt lat="50.86173" lon="1.88045">
        <ele>19.3637695</ele>
        <time>2012-12-01T15:21:25Z</time>
      </trkpt>
      <trkpt lat="50.86172" lon="1.88044">
        <ele>22.7282715</ele>
        <time>2012-12-01T15:21:34Z</time>
      </trkpt>
      <trkpt lat="50.86173" lon="1.88048">
        <ele>20.3249512</ele>
        <time>2012-12-01T15:21:44Z</time>
      </trkpt>
      <trkpt lat="50.86173" lon="1.88047">
        <ele>16.4797363</ele>
        <time>2012-12-01T15:21:59Z</time>
      </trkpt>
      <trkpt lat="50.86172" lon="1.88044">
        <ele>17.4411621</ele>
        <time>2012-12-01T15:22:05Z</time>
      </trkpt>
      <trkpt lat="50.86172" lon="1.88044">
        <ele>17.9217529</ele>
        <time>2012-12-01T15:22:09Z</time>
      </trkpt>
      <trkpt lat="50.86172" lon="1.88045">
        <ele>19.3637695</ele>
        <time>2012-12-01T15:22:14Z</time>
      </trkpt>
      <trkpt lat="50.86172" lon="1.88044">
        <ele>15.0377197</ele>
        <time>2012-12-01T15:22:31Z</time>
      </trkpt>
      <trkpt lat="50.86171" lon="1.88042">
        <ele>17.4411621</ele>
        <time>2012-12-01T15:22:43Z</time>
      </trkpt>
      <trkpt lat="50.8617" lon="1.88043">
        <ele>18.8830566</ele>
        <time>2012-12-01T15:22:54Z</time>
      </trkpt>
      <trkpt lat="50.86171" lon="1.88045">
        <ele>20.3249512</ele>
        <time>2012-12-01T15:23:02Z</time>
      </trkpt>
      <trkpt lat="50.86172" lon="1.88041">
        <ele>26.0928955</ele>
        <time>2012-12-01T15:23:12Z</time>
      </trkpt>
      <trkpt lat="50.86171" lon="1.88041">
        <ele>23.2089844</ele>
        <time>2012-12-01T15:23:18Z</time>
      </trkpt>
      <trkpt lat="50.86175" lon="1.88051">
        <ele>13.1151123</ele>
        <time>2012-12-01T15:23:27Z</time>
      </trkpt>
      <trkpt lat="50.86175" lon="1.88054">
        <ele>13.5958252</ele>
        <time>2012-12-01T15:23:33Z</time>
      </trkpt>
      <trkpt lat="50.86175" lon="1.88052">
        <ele>15.0377197</ele>
        <time>2012-12-01T15:23:35Z</time>
      </trkpt>
      <trkpt lat="50.86178" lon="1.88042">
        <ele>21.7669678</ele>
        <time>2012-12-01T15:23:43Z</time>
      </trkpt>
      <trkpt lat="50.86181" lon="1.88039">
        <ele>22.7282715</ele>
        <time>2012-12-01T15:23:49Z</time>
      </trkpt>
      <trkpt lat="50.8618" lon="1.88041">
        <ele>22.7282715</ele>
        <time>2012-12-01T15:23:59Z</time>
      </trkpt>
      <trkpt lat="50.86183" lon="1.88034">
        <ele>22.7282715</ele>
        <time>2012-12-01T15:24:19Z</time>
      </trkpt>
      <trkpt lat="50.86184" lon="1.88037">
        <ele>16.4797363</ele>
        <time>2012-12-01T15:24:31Z</time>
      </trkpt>
      <trkpt lat="50.86186" lon="1.88037">
        <ele>15.9990234</ele>
        <time>2012-12-01T15:24:38Z</time>
      </trkpt>
      <trkpt lat="50.86194" lon="1.88034">
        <ele>15.9990234</ele>
        <time>2012-12-01T15:24:44Z</time>
      </trkpt>
      <trkpt lat="50.86205" lon="1.88033">
        <ele>16.9604492</ele>
        <time>2012-12-01T15:24:52Z</time>
      </trkpt>
      <trkpt lat="50.86213" lon="1.88032">
        <ele>16.9604492</ele>
        <time>2012-12-01T15:24:58Z</time>
      </trkpt>
      <trkpt lat="50.86225" lon="1.8803">
        <ele>18.8830566</ele>
        <time>2012-12-01T15:25:06Z</time>
      </trkpt>
      <trkpt lat="50.86231" lon="1.88031">
        <ele>17.9217529</ele>
        <time>2012-12-01T15:25:12Z</time>
      </trkpt>
      <trkpt lat="50.8624" lon="1.88028">
        <ele>20.8056641</ele>
        <time>2012-12-01T15:25:19Z</time>
      </trkpt>
      <trkpt lat="50.86247" lon="1.88027">
        <ele>21.286377</ele>
        <time>2012-12-01T15:25:24Z</time>
      </trkpt>
      <trkpt lat="50.86256" lon="1.88025">
        <ele>18.8830566</ele>
        <time>2012-12-01T15:25:31Z</time>
      </trkpt>
      <trkpt lat="50.8626" lon="1.88024">
        <ele>17.4411621</ele>
        <time>2012-12-01T15:25:33Z</time>
      </trkpt>
      <trkpt lat="50.86268" lon="1.88018">
        <ele>15.5184326</ele>
        <time>2012-12-01T15:25:39Z</time>
      </trkpt>
      <trkpt lat="50.86271" lon="1.88017">
        <ele>15.9990234</ele>
        <time>2012-12-01T15:25:41Z</time>
      </trkpt>
      <trkpt lat="50.86274" lon="1.88017">
        <ele>15.9990234</ele>
        <time>2012-12-01T15:25:43Z</time>
      </trkpt>
      <trkpt lat="50.86282" lon="1.88014">
        <ele>17.9217529</ele>
        <time>2012-12-01T15:25:49Z</time>
      </trkpt>
      <trkpt lat="50.86287" lon="1.88011">
        <ele>17.4411621</ele>
        <time>2012-12-01T15:25:53Z</time>
      </trkpt>
      <trkpt lat="50.86298" lon="1.88">
        <ele>18.4023438</ele>
        <time>2012-12-01T15:26:02Z</time>
      </trkpt>
      <trkpt lat="50.86299" lon="1.87999">
        <ele>18.8830566</ele>
        <time>2012-12-01T15:26:03Z</time>
      </trkpt>
      <trkpt lat="50.86302" lon="1.87992">
        <ele>22.2475586</ele>
        <time>2012-12-01T15:26:07Z</time>
      </trkpt>
      <trkpt lat="50.86303" lon="1.87987">
        <ele>24.651001</ele>
        <time>2012-12-01T15:26:10Z</time>
      </trkpt>
      <trkpt lat="50.86305" lon="1.87978">
        <ele>24.1702881</ele>
        <time>2012-12-01T15:26:15Z</time>
      </trkpt>
      <trkpt lat="50.86306" lon="1.87973">
        <ele>22.2475586</ele>
        <time>2012-12-01T15:26:18Z</time>
      </trkpt>
      <trkpt lat="50.86307" lon="1.87975">
        <ele>23.6895752</ele>
        <time>2012-12-01T15:26:25Z</time>
      </trkpt>
      <trkpt lat="50.86312" lon="1.87976">
        <ele>22.2475586</ele>
        <time>2012-12-01T15:26:30Z</time>
      </trkpt>
      <trkpt lat="50.86315" lon="1.8798">
        <ele>21.286377</ele>
        <time>2012-12-01T15:26:36Z</time>
      </trkpt>
      <trkpt lat="50.86319" lon="1.87985">
        <ele>18.8830566</ele>
        <time>2012-12-01T15:26:42Z</time>
      </trkpt>
      <trkpt lat="50.86321" lon="1.87981">
        <ele>20.3249512</ele>
        <time>2012-12-01T15:26:45Z</time>
      </trkpt>
      <trkpt lat="50.8633" lon="1.87974">
        <ele>21.286377</ele>
        <time>2012-12-01T15:26:51Z</time>
      </trkpt>
      <trkpt lat="50.86336" lon="1.8797">
        <ele>20.8056641</ele>
        <time>2012-12-01T15:26:58Z</time>
      </trkpt>
      <trkpt lat="50.86343" lon="1.87961">
        <ele>19.8443604</ele>
        <time>2012-12-01T15:27:06Z</time>
      </trkpt>
      <trkpt lat="50.86351" lon="1.87954">
        <ele>15.9990234</ele>
        <time>2012-12-01T15:27:12Z</time>
      </trkpt>
      <trkpt lat="50.86356" lon="1.87944">
        <ele>16.4797363</ele>
        <time>2012-12-01T15:27:17Z</time>
      </trkpt>
      <trkpt lat="50.8636" lon="1.87938">
        <ele>18.4023438</ele>
        <time>2012-12-01T15:27:21Z</time>
      </trkpt>
      <trkpt lat="50.86364" lon="1.87933">
        <ele>16.4797363</ele>
        <time>2012-12-01T15:27:24Z</time>
      </trkpt>
      <trkpt lat="50.86367" lon="1.8793">
        <ele>15.0377197</ele>
        <time>2012-12-01T15:27:27Z</time>
      </trkpt>
      <trkpt lat="50.86373" lon="1.87926">
        <ele>17.4411621</ele>
        <time>2012-12-01T15:27:32Z</time>
      </trkpt>
      <trkpt lat="50.86379" lon="1.87921">
        <ele>15.0377197</ele>
        <time>2012-12-01T15:27:37Z</time>
      </trkpt>
      <trkpt lat="50.86387" lon="1.87913">
        <ele>13.1151123</ele>
        <time>2012-12-01T15:27:45Z</time>
      </trkpt>
      <trkpt lat="50.86397" lon="1.87903">
        <ele>12.1538086</ele>
        <time>2012-12-01T15:27:53Z</time>
      </trkpt>
      <trkpt lat="50.86404" lon="1.87898">
        <ele>11.1925049</ele>
        <time>2012-12-01T15:27:59Z</time>
      </trkpt>
      <trkpt lat="50.86411" lon="1.87889">
        <ele>12.1538086</ele>
        <time>2012-12-01T15:28:06Z</time>
      </trkpt>
      <trkpt lat="50.86416" lon="1.87883">
        <ele>10.711792</ele>
        <time>2012-12-01T15:28:11Z</time>
      </trkpt>
      <trkpt lat="50.86423" lon="1.87877">
        <ele>11.1925049</ele>
        <time>2012-12-01T15:28:17Z</time>
      </trkpt>
      <trkpt lat="50.8643" lon="1.8787">
        <ele>11.1925049</ele>
        <time>2012-12-01T15:28:24Z</time>
      </trkpt>
      <trkpt lat="50.86434" lon="1.87865">
        <ele>11.1925049</ele>
        <time>2012-12-01T15:28:28Z</time>
      </trkpt>
      <trkpt lat="50.86442" lon="1.87858">
        <ele>7.8278809</ele>
        <time>2012-12-01T15:28:36Z</time>
      </trkpt>
      <trkpt lat="50.86449" lon="1.8785">
        <ele>7.347168</ele>
        <time>2012-12-01T15:28:43Z</time>
      </trkpt>
      <trkpt lat="50.86456" lon="1.87842">
        <ele>8.7891846</ele>
        <time>2012-12-01T15:28:49Z</time>
      </trkpt>
      <trkpt lat="50.86465" lon="1.87832">
        <ele>7.8278809</ele>
        <time>2012-12-01T15:28:57Z</time>
      </trkpt>
      <trkpt lat="50.86466" lon="1.87831">
        <ele>8.3085938</ele>
        <time>2012-12-01T15:28:58Z</time>
      </trkpt>
      <trkpt lat="50.86472" lon="1.87825">
        <ele>8.7891846</ele>
        <time>2012-12-01T15:29:03Z</time>
      </trkpt>
      <trkpt lat="50.86478" lon="1.87817">
        <ele>7.8278809</ele>
        <time>2012-12-01T15:29:08Z</time>
      </trkpt>
      <trkpt lat="50.86483" lon="1.87812">
        <ele>8.7891846</ele>
        <time>2012-12-01T15:29:11Z</time>
      </trkpt>
      <trkpt lat="50.86492" lon="1.87803">
        <ele>8.3085938</ele>
        <time>2012-12-01T15:29:20Z</time>
      </trkpt>
      <trkpt lat="50.865" lon="1.87796">
        <ele>7.8278809</ele>
        <time>2012-12-01T15:29:27Z</time>
      </trkpt>
      <trkpt lat="50.86509" lon="1.87787">
        <ele>8.7891846</ele>
        <time>2012-12-01T15:29:35Z</time>
      </trkpt>
      <trkpt lat="50.86516" lon="1.8778">
        <ele>8.7891846</ele>
        <time>2012-12-01T15:29:41Z</time>
      </trkpt>
      <trkpt lat="50.86526" lon="1.87771">
        <ele>10.711792</ele>
        <time>2012-12-01T15:29:50Z</time>
      </trkpt>
      <trkpt lat="50.86531" lon="1.87763">
        <ele>8.7891846</ele>
        <time>2012-12-01T15:29:56Z</time>
      </trkpt>
      <trkpt lat="50.86537" lon="1.87756">
        <ele>7.8278809</ele>
        <time>2012-12-01T15:30:02Z</time>
      </trkpt>
      <trkpt lat="50.86544" lon="1.87749">
        <ele>7.347168</ele>
        <time>2012-12-01T15:30:09Z</time>
      </trkpt>
      <trkpt lat="50.86551" lon="1.8774">
        <ele>4.9438477</ele>
        <time>2012-12-01T15:30:17Z</time>
      </trkpt>
      <trkpt lat="50.8656" lon="1.87731">
        <ele>2.5406494</ele>
        <time>2012-12-01T15:30:26Z</time>
      </trkpt>
      <trkpt lat="50.86567" lon="1.87723">
        <ele>2.5406494</ele>
        <time>2012-12-01T15:30:33Z</time>
      </trkpt>
      <trkpt lat="50.86573" lon="1.87717">
        <ele>2.0600586</ele>
        <time>2012-12-01T15:30:38Z</time>
      </trkpt>
      <trkpt lat="50.8658" lon="1.8771">
        <ele>1.5793457</ele>
        <time>2012-12-01T15:30:45Z</time>
      </trkpt>
      <trkpt lat="50.86588" lon="1.87702">
        <ele>-1.3046875</ele>
        <time>2012-12-01T15:30:52Z</time>
      </trkpt>
      <trkpt lat="50.86595" lon="1.87697">
        <ele>-2.2659912</ele>
        <time>2012-12-01T15:30:59Z</time>
      </trkpt>
      <trkpt lat="50.86601" lon="1.87702">
        <ele>-0.3433838</ele>
        <time>2012-12-01T15:31:05Z</time>
      </trkpt>
      <trkpt lat="50.86606" lon="1.87702">
        <ele>-0.3433838</ele>
        <time>2012-12-01T15:31:09Z</time>
      </trkpt>
      <trkpt lat="50.86612" lon="1.87695">
        <ele>1.5793457</ele>
        <time>2012-12-01T15:31:15Z</time>
      </trkpt>
      <trkpt lat="50.86617" lon="1.87691">
        <ele>1.5793457</ele>
        <time>2012-12-01T15:31:19Z</time>
      </trkpt>
      <trkpt lat="50.86626" lon="1.87683">
        <ele>4.4632568</ele>
        <time>2012-12-01T15:31:27Z</time>
      </trkpt>
      <trkpt lat="50.86634" lon="1.87683">
        <ele>5.9052734</ele>
        <time>2012-12-01T15:31:32Z</time>
      </trkpt>
      <trkpt lat="50.86639" lon="1.87693">
        <ele>9.7506104</ele>
        <time>2012-12-01T15:31:39Z</time>
      </trkpt>
      <trkpt lat="50.8664" lon="1.87694">
        <ele>10.2312012</ele>
        <time>2012-12-01T15:31:40Z</time>
      </trkpt>
      <trkpt lat="50.86644" lon="1.87703">
        <ele>9.7506104</ele>
        <time>2012-12-01T15:31:46Z</time>
      </trkpt>
      <trkpt lat="50.86645" lon="1.87715">
        <ele>10.2312012</ele>
        <time>2012-12-01T15:31:52Z</time>
      </trkpt>
      <trkpt lat="50.86647" lon="1.87727">
        <ele>10.2312012</ele>
        <time>2012-12-01T15:32:00Z</time>
      </trkpt>
      <trkpt lat="50.86647" lon="1.87741">
        <ele>9.2698975</ele>
        <time>2012-12-01T15:32:08Z</time>
      </trkpt>
      <trkpt lat="50.86648" lon="1.87751">
        <ele>8.3085938</ele>
        <time>2012-12-01T15:32:14Z</time>
      </trkpt>
      <trkpt lat="50.86651" lon="1.87761">
        <ele>7.347168</ele>
        <time>2012-12-01T15:32:20Z</time>
      </trkpt>
      <trkpt lat="50.86653" lon="1.87766">
        <ele>7.347168</ele>
        <time>2012-12-01T15:32:23Z</time>
      </trkpt>
      <trkpt lat="50.86652" lon="1.8777">
        <ele>7.347168</ele>
        <time>2012-12-01T15:32:26Z</time>
      </trkpt>
      <trkpt lat="50.86656" lon="1.87782">
        <ele>6.3858643</ele>
        <time>2012-12-01T15:32:31Z</time>
      </trkpt>
      <trkpt lat="50.86657" lon="1.87795">
        <ele>6.8664551</ele>
        <time>2012-12-01T15:32:40Z</time>
      </trkpt>
      <trkpt lat="50.86658" lon="1.87812">
        <ele>8.7891846</ele>
        <time>2012-12-01T15:32:48Z</time>
      </trkpt>
      <trkpt lat="50.86659" lon="1.87826">
        <ele>8.7891846</ele>
        <time>2012-12-01T15:32:55Z</time>
      </trkpt>
      <trkpt lat="50.8666" lon="1.8784">
        <ele>8.7891846</ele>
        <time>2012-12-01T15:33:02Z</time>
      </trkpt>
      <trkpt lat="50.86662" lon="1.87861">
        <ele>10.2312012</ele>
        <time>2012-12-01T15:33:12Z</time>
      </trkpt>
      <trkpt lat="50.86663" lon="1.87872">
        <ele>9.7506104</ele>
        <time>2012-12-01T15:33:18Z</time>
      </trkpt>
      <trkpt lat="50.86663" lon="1.87881">
        <ele>11.1925049</ele>
        <time>2012-12-01T15:33:23Z</time>
      </trkpt>
      <trkpt lat="50.86665" lon="1.87895">
        <ele>10.2312012</ele>
        <time>2012-12-01T15:33:31Z</time>
      </trkpt>
      <trkpt lat="50.86666" lon="1.87898">
        <ele>10.2312012</ele>
        <time>2012-12-01T15:33:33Z</time>
      </trkpt>
      <trkpt lat="50.86675" lon="1.87897">
        <ele>10.2312012</ele>
        <time>2012-12-01T15:33:40Z</time>
      </trkpt>
      <trkpt lat="50.8668" lon="1.87898">
        <ele>9.7506104</ele>
        <time>2012-12-01T15:33:44Z</time>
      </trkpt>
      <trkpt lat="50.8669" lon="1.87897">
        <ele>7.347168</ele>
        <time>2012-12-01T15:33:53Z</time>
      </trkpt>
      <trkpt lat="50.867" lon="1.87903">
        <ele>7.8278809</ele>
        <time>2012-12-01T15:34:01Z</time>
      </trkpt>
      <trkpt lat="50.86707" lon="1.8791">
        <ele>7.347168</ele>
        <time>2012-12-01T15:34:08Z</time>
      </trkpt>
      <trkpt lat="50.86714" lon="1.8792">
        <ele>8.3085938</ele>
        <time>2012-12-01T15:34:15Z</time>
      </trkpt>
      <trkpt lat="50.86714" lon="1.87922">
        <ele>8.3085938</ele>
        <time>2012-12-01T15:34:16Z</time>
      </trkpt>
      <trkpt lat="50.86717" lon="1.87928">
        <ele>8.3085938</ele>
        <time>2012-12-01T15:34:19Z</time>
      </trkpt>
      <trkpt lat="50.86716" lon="1.87937">
        <ele>8.7891846</ele>
        <time>2012-12-01T15:34:23Z</time>
      </trkpt>
      <trkpt lat="50.86711" lon="1.87951">
        <ele>10.2312012</ele>
        <time>2012-12-01T15:34:30Z</time>
      </trkpt>
      <trkpt lat="50.86706" lon="1.87971">
        <ele>8.3085938</ele>
        <time>2012-12-01T15:34:34Z</time>
      </trkpt>
      <trkpt lat="50.86702" lon="1.87991">
        <ele>8.7891846</ele>
        <time>2012-12-01T15:34:38Z</time>
      </trkpt>
      <trkpt lat="50.86703" lon="1.88014">
        <ele>8.7891846</ele>
        <time>2012-12-01T15:34:43Z</time>
      </trkpt>
      <trkpt lat="50.86709" lon="1.88043">
        <ele>5.9052734</ele>
        <time>2012-12-01T15:34:49Z</time>
      </trkpt>
      <trkpt lat="50.86713" lon="1.88063">
        <ele>5.4245605</ele>
        <time>2012-12-01T15:34:54Z</time>
      </trkpt>
      <trkpt lat="50.86721" lon="1.88064">
        <ele>5.9052734</ele>
        <time>2012-12-01T15:34:58Z</time>
      </trkpt>
      <trkpt lat="50.86739" lon="1.8806">
        <ele>5.4245605</ele>
        <time>2012-12-01T15:35:04Z</time>
      </trkpt>
      <trkpt lat="50.86752" lon="1.88062">
        <ele>4.4632568</ele>
        <time>2012-12-01T15:35:09Z</time>
      </trkpt>
      <trkpt lat="50.86756" lon="1.88063">
        <ele>3.5019531</ele>
        <time>2012-12-01T15:35:13Z</time>
      </trkpt>
      <trkpt lat="50.86765" lon="1.88068">
        <ele>3.982666</ele>
        <time>2012-12-01T15:35:20Z</time>
      </trkpt>
      <trkpt lat="50.8677" lon="1.88071">
        <ele>4.9438477</ele>
        <time>2012-12-01T15:35:25Z</time>
      </trkpt>
      <trkpt lat="50.86774" lon="1.88079">
        <ele>4.9438477</ele>
        <time>2012-12-01T15:35:30Z</time>
      </trkpt>
      <trkpt lat="50.86773" lon="1.88086">
        <ele>5.4245605</ele>
        <time>2012-12-01T15:35:34Z</time>
      </trkpt>
      <trkpt lat="50.86771" lon="1.88096">
        <ele>3.5019531</ele>
        <time>2012-12-01T15:35:41Z</time>
      </trkpt>
      <trkpt lat="50.86769" lon="1.88109">
        <ele>4.9438477</ele>
        <time>2012-12-01T15:35:49Z</time>
      </trkpt>
      <trkpt lat="50.86768" lon="1.88119">
        <ele>6.8664551</ele>
        <time>2012-12-01T15:35:55Z</time>
      </trkpt>
      <trkpt lat="50.86773" lon="1.88118">
        <ele>6.8664551</ele>
        <time>2012-12-01T15:36:00Z</time>
      </trkpt>
      <trkpt lat="50.8677" lon="1.88122">
        <ele>5.4245605</ele>
        <time>2012-12-01T15:36:05Z</time>
      </trkpt>
      <trkpt lat="50.86773" lon="1.88117">
        <ele>4.4632568</ele>
        <time>2012-12-01T15:36:09Z</time>
      </trkpt>
      <trkpt lat="50.86774" lon="1.88121">
        <ele>4.4632568</ele>
        <time>2012-12-01T15:36:13Z</time>
      </trkpt>
      <trkpt lat="50.86771" lon="1.8812">
        <ele>4.9438477</ele>
        <time>2012-12-01T15:36:17Z</time>
      </trkpt>
      <trkpt lat="50.86776" lon="1.88118">
        <ele>3.982666</ele>
        <time>2012-12-01T15:36:21Z</time>
      </trkpt>
      <trkpt lat="50.86778" lon="1.88119">
        <ele>3.5019531</ele>
        <time>2012-12-01T15:36:27Z</time>
      </trkpt>
      <trkpt lat="50.86775" lon="1.88114">
        <ele>4.4632568</ele>
        <time>2012-12-01T15:36:33Z</time>
      </trkpt>
      <trkpt lat="50.86775" lon="1.88111">
        <ele>4.4632568</ele>
        <time>2012-12-01T15:36:39Z</time>
      </trkpt>
      <trkpt lat="50.86777" lon="1.88114">
        <ele>4.9438477</ele>
        <time>2012-12-01T15:36:45Z</time>
      </trkpt>
      <trkpt lat="50.86775" lon="1.88116">
        <ele>4.9438477</ele>
        <time>2012-12-01T15:36:51Z</time>
      </trkpt>
      <trkpt lat="50.86774" lon="1.88116">
        <ele>6.3858643</ele>
        <time>2012-12-01T15:36:56Z</time>
      </trkpt>
      <trkpt lat="50.86773" lon="1.88122">
        <ele>6.8664551</ele>
        <time>2012-12-01T15:37:03Z</time>
      </trkpt>
      <trkpt lat="50.8677" lon="1.88117">
        <ele>4.9438477</ele>
        <time>2012-12-01T15:37:08Z</time>
      </trkpt>
      <trkpt lat="50.8677" lon="1.88116">
        <ele>3.5019531</ele>
        <time>2012-12-01T15:37:12Z</time>
      </trkpt>
      <trkpt lat="50.86773" lon="1.88116">
        <ele>2.5406494</ele>
        <time>2012-12-01T15:37:17Z</time>
      </trkpt>
      <trkpt lat="50.86776" lon="1.88117">
        <ele>3.5019531</ele>
        <time>2012-12-01T15:37:22Z</time>
      </trkpt>
      <trkpt lat="50.86778" lon="1.88117">
        <ele>0.618042</ele>
        <time>2012-12-01T15:37:29Z</time>
      </trkpt>
      <trkpt lat="50.86778" lon="1.88118">
        <ele>-0.3433838</ele>
        <time>2012-12-01T15:37:35Z</time>
      </trkpt>
      <trkpt lat="50.86777" lon="1.88119">
        <ele>5.4245605</ele>
        <time>2012-12-01T15:37:42Z</time>
      </trkpt>
      <trkpt lat="50.86777" lon="1.88117">
        <ele>6.8664551</ele>
        <time>2012-12-01T15:37:48Z</time>
      </trkpt>
      <trkpt lat="50.86778" lon="1.88114">
        <ele>6.3858643</ele>
        <time>2012-12-01T15:37:54Z</time>
      </trkpt>
      <trkpt lat="50.86778" lon="1.88115">
        <ele>6.8664551</ele>
        <time>2012-12-01T15:38:00Z</time>
      </trkpt>
      <trkpt lat="50.86778" lon="1.88111">
        <ele>13.5958252</ele>
        <time>2012-12-01T15:38:15Z</time>
      </trkpt>
      <trkpt lat="50.8678" lon="1.8811">
        <ele>12.1538086</ele>
        <time>2012-12-01T15:38:21Z</time>
      </trkpt>
      <trkpt lat="50.86781" lon="1.8811">
        <ele>9.2698975</ele>
        <time>2012-12-01T15:38:29Z</time>
      </trkpt>
      <trkpt lat="50.86781" lon="1.88111">
        <ele>3.0212402</ele>
        <time>2012-12-01T15:38:35Z</time>
      </trkpt>
      <trkpt lat="50.86781" lon="1.88116">
        <ele>2.5406494</ele>
        <time>2012-12-01T15:38:42Z</time>
      </trkpt>
      <trkpt lat="50.8678" lon="1.88119">
        <ele>4.9438477</ele>
        <time>2012-12-01T15:38:51Z</time>
      </trkpt>
      <trkpt lat="50.86782" lon="1.88118">
        <ele>5.4245605</ele>
        <time>2012-12-01T15:38:57Z</time>
      </trkpt>
      <trkpt lat="50.86781" lon="1.88114">
        <ele>7.8278809</ele>
        <time>2012-12-01T15:39:05Z</time>
      </trkpt>
    </trkseg>
  </trk>
</gpx>